<?xml version="1.0" encoding="UTF-8" standalone="no" ?>
<gpx xmlns="http://www.topografix.com/GPX/1/1" xmlns:xsi="http://www.w3.org/2001/XMLSchema-instance" xsi:schemaLocation="http://www.topografix.com/GPX/1/1 http://www.topografix.com/GPX/1/1/gpx.xsd" version="1.1" creator="VisuGPX - https://www.visugpx.com">
  <metadata>
    <name>Vers les sommets de Rignac</name>
    <desc><![CDATA[Petite rando pour se mettre en appétit]]></desc>
  </metadata>
  <wpt lat="44.80721" lon="1.69703">
    <ele>338.9</ele>
    <name><![CDATA[27/07/2015 10:12 (départ)]]></name>
  </wpt>
  <wpt lat="44.8074" lon="1.69723">
    <ele>352.5</ele>
    <name><![CDATA[27/07/2015 10:12 (fin)]]></name>
    <desc><![CDATA[Créé par Mes parcours sur Android  Nom : 27/07/2015 10:12 Type d'activité : automobile Description : - Distance totale : 5,61 km (3,5 mi) Durée totale : 1:40:04 Durée du déplacement : 1:35:56 Vitesse moyenne : 3,36 km/h (2,1 mi/h) Vitesse moyenne de déplacement : 3,51 km/h (2,2 mi/h) Vitesse max. : 6,09 km/h (3,8 mi/h) Vitesse moyenne : 17:50 min/km (28:43 min/mi) Allure moyenne : 17:06 min/km (27:32 min/mi) Vitesse maximale : 9:51 min/km (15:51 min/mi) Élévation max. : 468 m (1536 pi) Élévation min. : 339 m (1112 pi) Dénivelé : 141 m (462 pi) Inclinaison max. : 11 % Inclinaison min. : -15 % Date d'enregistrement : 27/07/2015 10:12]]></desc>
  </wpt>
  <trk>
    <name><![CDATA[27/07/2015 10:12]]></name>
    <trkseg>
      <trkpt lat="44.80721" lon="1.69703">
        <ele>338.877655029</ele>
        <time>2015-07-27T08:12:41.834Z</time>
      </trkpt>
      <trkpt lat="44.80728" lon="1.69711">
        <ele>341.636291504</ele>
        <time>2015-07-27T08:13:34.465Z</time>
      </trkpt>
      <trkpt lat="44.80733" lon="1.69713">
        <ele>340.708007812</ele>
        <time>2015-07-27T08:13:35.474Z</time>
      </trkpt>
      <trkpt lat="44.8074" lon="1.69717">
        <ele>340.286956787</ele>
        <time>2015-07-27T08:13:49.487Z</time>
      </trkpt>
      <trkpt lat="44.80744" lon="1.6972">
        <ele>340.231994629</ele>
        <time>2015-07-27T08:13:50.46Z</time>
      </trkpt>
      <trkpt lat="44.80749" lon="1.69728">
        <ele>341.244598389</ele>
        <time>2015-07-27T08:13:59.487Z</time>
      </trkpt>
      <trkpt lat="44.80752" lon="1.69732">
        <ele>341.312683105</ele>
        <time>2015-07-27T08:14:00.478Z</time>
      </trkpt>
      <trkpt lat="44.80759" lon="1.69736">
        <ele>341.593322754</ele>
        <time>2015-07-27T08:14:07.737Z</time>
      </trkpt>
      <trkpt lat="44.8076" lon="1.69737">
        <ele>341.630126953</ele>
        <time>2015-07-27T08:14:08.465Z</time>
      </trkpt>
      <trkpt lat="44.80767" lon="1.69743">
        <ele>341.365936279</ele>
        <time>2015-07-27T08:14:14.506Z</time>
      </trkpt>
      <trkpt lat="44.80768" lon="1.69745">
        <ele>341.349121094</ele>
        <time>2015-07-27T08:14:15.46Z</time>
      </trkpt>
      <trkpt lat="44.80774" lon="1.69754">
        <ele>340.675323486</ele>
        <time>2015-07-27T08:14:23.488Z</time>
      </trkpt>
      <trkpt lat="44.80774" lon="1.69754">
        <ele>340.65435791</ele>
        <time>2015-07-27T08:14:24.479Z</time>
      </trkpt>
      <trkpt lat="44.80781" lon="1.69762">
        <ele>340.508209229</ele>
        <time>2015-07-27T08:14:33.036Z</time>
      </trkpt>
      <trkpt lat="44.80782" lon="1.69763">
        <ele>340.473693848</ele>
        <time>2015-07-27T08:14:33.535Z</time>
      </trkpt>
      <trkpt lat="44.80787" lon="1.69771">
        <ele>340.667938232</ele>
        <time>2015-07-27T08:14:41.873Z</time>
      </trkpt>
      <trkpt lat="44.80788" lon="1.69773">
        <ele>340.737121582</ele>
        <time>2015-07-27T08:14:42.475Z</time>
      </trkpt>
      <trkpt lat="44.80794" lon="1.69781">
        <ele>341.044677734</ele>
        <time>2015-07-27T08:14:50.471Z</time>
      </trkpt>
      <trkpt lat="44.80795" lon="1.69782">
        <ele>341.078765869</ele>
        <time>2015-07-27T08:14:51.477Z</time>
      </trkpt>
      <trkpt lat="44.808" lon="1.6979">
        <ele>342.063232422</ele>
        <time>2015-07-27T08:15:00.476Z</time>
      </trkpt>
      <trkpt lat="44.80802" lon="1.69791">
        <ele>342.248321533</ele>
        <time>2015-07-27T08:15:01.485Z</time>
      </trkpt>
      <trkpt lat="44.80808" lon="1.698">
        <ele>343.269226074</ele>
        <time>2015-07-27T08:15:13.422Z</time>
      </trkpt>
      <trkpt lat="44.80808" lon="1.69799">
        <ele>343.35168457</ele>
        <time>2015-07-27T08:15:14.468Z</time>
      </trkpt>
      <trkpt lat="44.80815" lon="1.69791">
        <ele>344.3487854</ele>
        <time>2015-07-27T08:15:47.474Z</time>
      </trkpt>
      <trkpt lat="44.80815" lon="1.6979">
        <ele>344.269012451</ele>
        <time>2015-07-27T08:15:48.461Z</time>
      </trkpt>
      <trkpt lat="44.80814" lon="1.69802">
        <ele>347.362945557</ele>
        <time>2015-07-27T08:17:57.198Z</time>
      </trkpt>
      <trkpt lat="44.80814" lon="1.69804">
        <ele>347.463806152</ele>
        <time>2015-07-27T08:17:57.495Z</time>
      </trkpt>
      <trkpt lat="44.8082" lon="1.69813">
        <ele>348.757598877</ele>
        <time>2015-07-27T08:18:14.52Z</time>
      </trkpt>
      <trkpt lat="44.80821" lon="1.69814">
        <ele>348.867645264</ele>
        <time>2015-07-27T08:18:15.481Z</time>
      </trkpt>
      <trkpt lat="44.80828" lon="1.69822">
        <ele>349.492095947</ele>
        <time>2015-07-27T08:18:23.468Z</time>
      </trkpt>
      <trkpt lat="44.80828" lon="1.69822">
        <ele>349.555206299</ele>
        <time>2015-07-27T08:18:24.575Z</time>
      </trkpt>
      <trkpt lat="44.80833" lon="1.6983">
        <ele>350.010681152</ele>
        <time>2015-07-27T08:18:34.91Z</time>
      </trkpt>
      <trkpt lat="44.80835" lon="1.69832">
        <ele>350.008056641</ele>
        <time>2015-07-27T08:18:35.46Z</time>
      </trkpt>
      <trkpt lat="44.80843" lon="1.69838">
        <ele>349.494812012</ele>
        <time>2015-07-27T08:18:42.021Z</time>
      </trkpt>
      <trkpt lat="44.80844" lon="1.69839">
        <ele>349.406311035</ele>
        <time>2015-07-27T08:18:42.398Z</time>
      </trkpt>
      <trkpt lat="44.8085" lon="1.69845">
        <ele>349.439544678</ele>
        <time>2015-07-27T08:18:49.463Z</time>
      </trkpt>
      <trkpt lat="44.80851" lon="1.69846">
        <ele>349.401123047</ele>
        <time>2015-07-27T08:18:50.451Z</time>
      </trkpt>
      <trkpt lat="44.80858" lon="1.69851">
        <ele>349.077606201</ele>
        <time>2015-07-27T08:18:57.47Z</time>
      </trkpt>
      <trkpt lat="44.8086" lon="1.69851">
        <ele>348.972961426</ele>
        <time>2015-07-27T08:18:58.467Z</time>
      </trkpt>
      <trkpt lat="44.80868" lon="1.69854">
        <ele>348.745483398</ele>
        <time>2015-07-27T08:19:04.473Z</time>
      </trkpt>
      <trkpt lat="44.80869" lon="1.69854">
        <ele>348.712554932</ele>
        <time>2015-07-27T08:19:05.465Z</time>
      </trkpt>
      <trkpt lat="44.80877" lon="1.69851">
        <ele>349.109191895</ele>
        <time>2015-07-27T08:19:15.466Z</time>
      </trkpt>
      <trkpt lat="44.80878" lon="1.69851">
        <ele>349.185791016</ele>
        <time>2015-07-27T08:19:16.987Z</time>
      </trkpt>
      <trkpt lat="44.80886" lon="1.6985">
        <ele>349.527191162</ele>
        <time>2015-07-27T08:19:21.472Z</time>
      </trkpt>
      <trkpt lat="44.80888" lon="1.69849">
        <ele>349.57913208</ele>
        <time>2015-07-27T08:19:22.469Z</time>
      </trkpt>
      <trkpt lat="44.80897" lon="1.69847">
        <ele>350.158782959</ele>
        <time>2015-07-27T08:19:30.47Z</time>
      </trkpt>
      <trkpt lat="44.80898" lon="1.69846">
        <ele>350.242645264</ele>
        <time>2015-07-27T08:19:31.432Z</time>
      </trkpt>
      <trkpt lat="44.80905" lon="1.6984">
        <ele>351.359039307</ele>
        <time>2015-07-27T08:19:41.87Z</time>
      </trkpt>
      <trkpt lat="44.80907" lon="1.69839">
        <ele>351.4972229</ele>
        <time>2015-07-27T08:19:42.487Z</time>
      </trkpt>
      <trkpt lat="44.80915" lon="1.69837">
        <ele>352.947387695</ele>
        <time>2015-07-27T08:19:51.972Z</time>
      </trkpt>
      <trkpt lat="44.80916" lon="1.69837">
        <ele>353.066986084</ele>
        <time>2015-07-27T08:19:52.51Z</time>
      </trkpt>
      <trkpt lat="44.80923" lon="1.69834">
        <ele>353.656341553</ele>
        <time>2015-07-27T08:19:57.472Z</time>
      </trkpt>
      <trkpt lat="44.80925" lon="1.69834">
        <ele>353.722717285</ele>
        <time>2015-07-27T08:19:58.459Z</time>
      </trkpt>
      <trkpt lat="44.80933" lon="1.6983">
        <ele>354.808563232</ele>
        <time>2015-07-27T08:20:07.47Z</time>
      </trkpt>
      <trkpt lat="44.80934" lon="1.69829">
        <ele>354.906585693</ele>
        <time>2015-07-27T08:20:08.474Z</time>
      </trkpt>
      <trkpt lat="44.80941" lon="1.69827">
        <ele>355.843658447</ele>
        <time>2015-07-27T08:20:14.467Z</time>
      </trkpt>
      <trkpt lat="44.80943" lon="1.69827">
        <ele>355.928253174</ele>
        <time>2015-07-27T08:20:15.568Z</time>
      </trkpt>
      <trkpt lat="44.80951" lon="1.69824">
        <ele>356.453308105</ele>
        <time>2015-07-27T08:20:21.481Z</time>
      </trkpt>
      <trkpt lat="44.80952" lon="1.69824">
        <ele>356.536346436</ele>
        <time>2015-07-27T08:20:22.477Z</time>
      </trkpt>
      <trkpt lat="44.8096" lon="1.69819">
        <ele>357.191650391</ele>
        <time>2015-07-27T08:20:31.469Z</time>
      </trkpt>
      <trkpt lat="44.80961" lon="1.69819">
        <ele>357.264099121</ele>
        <time>2015-07-27T08:20:32.532Z</time>
      </trkpt>
      <trkpt lat="44.8097" lon="1.69815">
        <ele>357.571807861</ele>
        <time>2015-07-27T08:20:39.483Z</time>
      </trkpt>
      <trkpt lat="44.8097" lon="1.69815">
        <ele>357.708953857</ele>
        <time>2015-07-27T08:20:40.469Z</time>
      </trkpt>
      <trkpt lat="44.80978" lon="1.69814">
        <ele>358.729156494</ele>
        <time>2015-07-27T08:20:49.488Z</time>
      </trkpt>
      <trkpt lat="44.8098" lon="1.69814">
        <ele>358.827056885</ele>
        <time>2015-07-27T08:20:50.489Z</time>
      </trkpt>
      <trkpt lat="44.80988" lon="1.69811">
        <ele>359.351226807</ele>
        <time>2015-07-27T08:20:59.475Z</time>
      </trkpt>
      <trkpt lat="44.80989" lon="1.69811">
        <ele>359.384185791</ele>
        <time>2015-07-27T08:21:00.455Z</time>
      </trkpt>
      <trkpt lat="44.80997" lon="1.6981">
        <ele>359.753845215</ele>
        <time>2015-07-27T08:21:10.465Z</time>
      </trkpt>
      <trkpt lat="44.80998" lon="1.6981">
        <ele>359.828948975</ele>
        <time>2015-07-27T08:21:11.549Z</time>
      </trkpt>
      <trkpt lat="44.81006" lon="1.69808">
        <ele>359.855316162</ele>
        <time>2015-07-27T08:21:20.453Z</time>
      </trkpt>
      <trkpt lat="44.81007" lon="1.69808">
        <ele>359.734375</ele>
        <time>2015-07-27T08:21:21.47Z</time>
      </trkpt>
      <trkpt lat="44.81015" lon="1.69805">
        <ele>359.861450195</ele>
        <time>2015-07-27T08:21:31.547Z</time>
      </trkpt>
      <trkpt lat="44.81017" lon="1.69805">
        <ele>359.925628662</ele>
        <time>2015-07-27T08:21:32.414Z</time>
      </trkpt>
      <trkpt lat="44.81025" lon="1.69806">
        <ele>360.203613281</ele>
        <time>2015-07-27T08:21:42.49Z</time>
      </trkpt>
      <trkpt lat="44.81026" lon="1.69805">
        <ele>360.217895508</ele>
        <time>2015-07-27T08:21:43.465Z</time>
      </trkpt>
      <trkpt lat="44.81034" lon="1.69801">
        <ele>360.682098389</ele>
        <time>2015-07-27T08:21:52.422Z</time>
      </trkpt>
      <trkpt lat="44.81035" lon="1.698">
        <ele>360.759033203</ele>
        <time>2015-07-27T08:21:53.471Z</time>
      </trkpt>
      <trkpt lat="44.81043" lon="1.69797">
        <ele>361.396331787</ele>
        <time>2015-07-27T08:22:00.458Z</time>
      </trkpt>
      <trkpt lat="44.81044" lon="1.69797">
        <ele>361.556610107</ele>
        <time>2015-07-27T08:22:01.475Z</time>
      </trkpt>
      <trkpt lat="44.81052" lon="1.69799">
        <ele>362.916412354</ele>
        <time>2015-07-27T08:22:10.485Z</time>
      </trkpt>
      <trkpt lat="44.81053" lon="1.69799">
        <ele>363.052734375</ele>
        <time>2015-07-27T08:22:11.507Z</time>
      </trkpt>
      <trkpt lat="44.81062" lon="1.69798">
        <ele>363.762573242</ele>
        <time>2015-07-27T08:22:20.492Z</time>
      </trkpt>
      <trkpt lat="44.81062" lon="1.69797">
        <ele>363.798248291</ele>
        <time>2015-07-27T08:22:21.421Z</time>
      </trkpt>
      <trkpt lat="44.8107" lon="1.69798">
        <ele>364.079620361</ele>
        <time>2015-07-27T08:22:29.479Z</time>
      </trkpt>
      <trkpt lat="44.81071" lon="1.69798">
        <ele>364.10067749</ele>
        <time>2015-07-27T08:22:30.468Z</time>
      </trkpt>
      <trkpt lat="44.8108" lon="1.69797">
        <ele>364.283935547</ele>
        <time>2015-07-27T08:22:38.391Z</time>
      </trkpt>
      <trkpt lat="44.81081" lon="1.69796">
        <ele>364.354156494</ele>
        <time>2015-07-27T08:22:39.466Z</time>
      </trkpt>
      <trkpt lat="44.8109" lon="1.69796">
        <ele>364.724884033</ele>
        <time>2015-07-27T08:22:46.476Z</time>
      </trkpt>
      <trkpt lat="44.81091" lon="1.69796">
        <ele>364.83013916</ele>
        <time>2015-07-27T08:22:47.459Z</time>
      </trkpt>
      <trkpt lat="44.81099" lon="1.69792">
        <ele>366.510162354</ele>
        <time>2015-07-27T08:23:00.473Z</time>
      </trkpt>
      <trkpt lat="44.811" lon="1.69791">
        <ele>366.624511719</ele>
        <time>2015-07-27T08:23:01.466Z</time>
      </trkpt>
      <trkpt lat="44.81108" lon="1.69789">
        <ele>367.800354004</ele>
        <time>2015-07-27T08:23:08.468Z</time>
      </trkpt>
      <trkpt lat="44.81109" lon="1.69789">
        <ele>367.982177734</ele>
        <time>2015-07-27T08:23:09.47Z</time>
      </trkpt>
      <trkpt lat="44.81118" lon="1.69786">
        <ele>369.377288818</ele>
        <time>2015-07-27T08:23:19.862Z</time>
      </trkpt>
      <trkpt lat="44.81118" lon="1.69785">
        <ele>369.453155518</ele>
        <time>2015-07-27T08:23:20.493Z</time>
      </trkpt>
      <trkpt lat="44.81127" lon="1.69787">
        <ele>370.34942627</ele>
        <time>2015-07-27T08:23:30.461Z</time>
      </trkpt>
      <trkpt lat="44.81127" lon="1.69787">
        <ele>370.431243896</ele>
        <time>2015-07-27T08:23:31.482Z</time>
      </trkpt>
      <trkpt lat="44.81136" lon="1.69788">
        <ele>371.108947754</ele>
        <time>2015-07-27T08:23:42.594Z</time>
      </trkpt>
      <trkpt lat="44.81137" lon="1.69787">
        <ele>371.172180176</ele>
        <time>2015-07-27T08:23:43.558Z</time>
      </trkpt>
      <trkpt lat="44.81145" lon="1.69787">
        <ele>371.793701172</ele>
        <time>2015-07-27T08:23:51.464Z</time>
      </trkpt>
      <trkpt lat="44.81146" lon="1.69787">
        <ele>371.867980957</ele>
        <time>2015-07-27T08:23:52.466Z</time>
      </trkpt>
      <trkpt lat="44.81155" lon="1.69787">
        <ele>372.065307617</ele>
        <time>2015-07-27T08:24:01.606Z</time>
      </trkpt>
      <trkpt lat="44.81155" lon="1.69787">
        <ele>372.057861328</ele>
        <time>2015-07-27T08:24:02.465Z</time>
      </trkpt>
      <trkpt lat="44.81164" lon="1.69786">
        <ele>371.698242188</ele>
        <time>2015-07-27T08:24:14.458Z</time>
      </trkpt>
      <trkpt lat="44.81165" lon="1.69786">
        <ele>371.673217773</ele>
        <time>2015-07-27T08:24:15.464Z</time>
      </trkpt>
      <trkpt lat="44.81173" lon="1.69787">
        <ele>371.955352783</ele>
        <time>2015-07-27T08:24:23.47Z</time>
      </trkpt>
      <trkpt lat="44.81174" lon="1.69787">
        <ele>371.960418701</ele>
        <time>2015-07-27T08:24:24.491Z</time>
      </trkpt>
      <trkpt lat="44.81183" lon="1.69788">
        <ele>372.428222656</ele>
        <time>2015-07-27T08:24:32.527Z</time>
      </trkpt>
      <trkpt lat="44.81184" lon="1.69788">
        <ele>372.51083374</ele>
        <time>2015-07-27T08:24:33.557Z</time>
      </trkpt>
      <trkpt lat="44.81193" lon="1.69788">
        <ele>372.96685791</ele>
        <time>2015-07-27T08:24:41.901Z</time>
      </trkpt>
      <trkpt lat="44.81193" lon="1.69788">
        <ele>373.008666992</ele>
        <time>2015-07-27T08:24:42.468Z</time>
      </trkpt>
      <trkpt lat="44.81202" lon="1.69788">
        <ele>373.704376221</ele>
        <time>2015-07-27T08:24:53.463Z</time>
      </trkpt>
      <trkpt lat="44.81203" lon="1.69788">
        <ele>373.748687744</ele>
        <time>2015-07-27T08:24:54.481Z</time>
      </trkpt>
      <trkpt lat="44.81212" lon="1.69786">
        <ele>374.590667725</ele>
        <time>2015-07-27T08:25:05.471Z</time>
      </trkpt>
      <trkpt lat="44.81212" lon="1.69786">
        <ele>374.687469482</ele>
        <time>2015-07-27T08:25:06.447Z</time>
      </trkpt>
      <trkpt lat="44.8122" lon="1.69783">
        <ele>374.850463867</ele>
        <time>2015-07-27T08:25:18.485Z</time>
      </trkpt>
      <trkpt lat="44.81221" lon="1.69783">
        <ele>374.893066406</ele>
        <time>2015-07-27T08:25:19.468Z</time>
      </trkpt>
      <trkpt lat="44.8123" lon="1.69782">
        <ele>375.359832764</ele>
        <time>2015-07-27T08:25:27.637Z</time>
      </trkpt>
      <trkpt lat="44.81231" lon="1.69782">
        <ele>375.437713623</ele>
        <time>2015-07-27T08:25:28.46Z</time>
      </trkpt>
      <trkpt lat="44.81239" lon="1.6978">
        <ele>376.525421143</ele>
        <time>2015-07-27T08:25:35.492Z</time>
      </trkpt>
      <trkpt lat="44.8124" lon="1.6978">
        <ele>376.601654053</ele>
        <time>2015-07-27T08:25:36.494Z</time>
      </trkpt>
      <trkpt lat="44.81249" lon="1.69778">
        <ele>377.761688232</ele>
        <time>2015-07-27T08:25:47.468Z</time>
      </trkpt>
      <trkpt lat="44.8125" lon="1.69777">
        <ele>377.794158936</ele>
        <time>2015-07-27T08:25:48.483Z</time>
      </trkpt>
      <trkpt lat="44.81257" lon="1.69773">
        <ele>379.370025635</ele>
        <time>2015-07-27T08:26:02.567Z</time>
      </trkpt>
      <trkpt lat="44.81258" lon="1.69773">
        <ele>379.52053833</ele>
        <time>2015-07-27T08:26:03.466Z</time>
      </trkpt>
      <trkpt lat="44.81267" lon="1.69773">
        <ele>380.573272705</ele>
        <time>2015-07-27T08:26:10.471Z</time>
      </trkpt>
      <trkpt lat="44.81269" lon="1.69773">
        <ele>380.688415527</ele>
        <time>2015-07-27T08:26:11.465Z</time>
      </trkpt>
      <trkpt lat="44.81277" lon="1.69774">
        <ele>382.540283203</ele>
        <time>2015-07-27T08:26:26.405Z</time>
      </trkpt>
      <trkpt lat="44.81278" lon="1.69775">
        <ele>382.783294678</ele>
        <time>2015-07-27T08:26:27.424Z</time>
      </trkpt>
      <trkpt lat="44.81286" lon="1.69775">
        <ele>384.271026611</ele>
        <time>2015-07-27T08:26:47.411Z</time>
      </trkpt>
      <trkpt lat="44.81287" lon="1.69774">
        <ele>384.366455078</ele>
        <time>2015-07-27T08:26:48.405Z</time>
      </trkpt>
      <trkpt lat="44.81295" lon="1.6977">
        <ele>384.992736816</ele>
        <time>2015-07-27T08:26:55.365Z</time>
      </trkpt>
      <trkpt lat="44.81296" lon="1.69769">
        <ele>385.109008789</ele>
        <time>2015-07-27T08:26:56.395Z</time>
      </trkpt>
      <trkpt lat="44.81304" lon="1.69766">
        <ele>386.437347412</ele>
        <time>2015-07-27T08:27:06.384Z</time>
      </trkpt>
      <trkpt lat="44.81305" lon="1.69765">
        <ele>386.551361084</ele>
        <time>2015-07-27T08:27:07.312Z</time>
      </trkpt>
      <trkpt lat="44.81314" lon="1.69765">
        <ele>387.436065674</ele>
        <time>2015-07-27T08:27:16.39Z</time>
      </trkpt>
      <trkpt lat="44.81315" lon="1.69765">
        <ele>387.530639648</ele>
        <time>2015-07-27T08:27:17.331Z</time>
      </trkpt>
      <trkpt lat="44.81324" lon="1.69763">
        <ele>388.232147217</ele>
        <time>2015-07-27T08:27:27.388Z</time>
      </trkpt>
      <trkpt lat="44.81324" lon="1.69763">
        <ele>388.289642334</ele>
        <time>2015-07-27T08:27:28.483Z</time>
      </trkpt>
      <trkpt lat="44.81333" lon="1.69762">
        <ele>388.85168457</ele>
        <time>2015-07-27T08:27:39.413Z</time>
      </trkpt>
      <trkpt lat="44.81334" lon="1.69762">
        <ele>388.950286865</ele>
        <time>2015-07-27T08:27:40.388Z</time>
      </trkpt>
      <trkpt lat="44.81342" lon="1.69763">
        <ele>389.125</ele>
        <time>2015-07-27T08:27:49.386Z</time>
      </trkpt>
      <trkpt lat="44.81343" lon="1.69763">
        <ele>389.154144287</ele>
        <time>2015-07-27T08:27:50.396Z</time>
      </trkpt>
      <trkpt lat="44.81351" lon="1.69759">
        <ele>390.024108887</ele>
        <time>2015-07-27T08:27:58.43Z</time>
      </trkpt>
      <trkpt lat="44.81352" lon="1.69759">
        <ele>390.171295166</ele>
        <time>2015-07-27T08:27:59.407Z</time>
      </trkpt>
      <trkpt lat="44.8136" lon="1.69759">
        <ele>391.056182861</ele>
        <time>2015-07-27T08:28:07.381Z</time>
      </trkpt>
      <trkpt lat="44.81361" lon="1.69759">
        <ele>391.144195557</ele>
        <time>2015-07-27T08:28:08.422Z</time>
      </trkpt>
      <trkpt lat="44.8137" lon="1.69763">
        <ele>392.254974365</ele>
        <time>2015-07-27T08:28:19.335Z</time>
      </trkpt>
      <trkpt lat="44.8137" lon="1.69763">
        <ele>392.422668457</ele>
        <time>2015-07-27T08:28:20.382Z</time>
      </trkpt>
      <trkpt lat="44.81378" lon="1.6976">
        <ele>393.107910156</ele>
        <time>2015-07-27T08:28:29.145Z</time>
      </trkpt>
      <trkpt lat="44.8138" lon="1.69759">
        <ele>393.204376221</ele>
        <time>2015-07-27T08:28:29.551Z</time>
      </trkpt>
      <trkpt lat="44.81388" lon="1.69754">
        <ele>393.891113281</ele>
        <time>2015-07-27T08:28:40.38Z</time>
      </trkpt>
      <trkpt lat="44.81388" lon="1.69754">
        <ele>393.949951172</ele>
        <time>2015-07-27T08:28:41.407Z</time>
      </trkpt>
      <trkpt lat="44.81397" lon="1.69751">
        <ele>394.528503418</ele>
        <time>2015-07-27T08:28:50.402Z</time>
      </trkpt>
      <trkpt lat="44.81398" lon="1.69751">
        <ele>394.632049561</ele>
        <time>2015-07-27T08:28:51.382Z</time>
      </trkpt>
      <trkpt lat="44.81405" lon="1.6975">
        <ele>395.713592529</ele>
        <time>2015-07-27T08:28:59.407Z</time>
      </trkpt>
      <trkpt lat="44.81407" lon="1.69751">
        <ele>395.827514648</ele>
        <time>2015-07-27T08:29:00.368Z</time>
      </trkpt>
      <trkpt lat="44.81416" lon="1.6975">
        <ele>396.549926758</ele>
        <time>2015-07-27T08:29:07.718Z</time>
      </trkpt>
      <trkpt lat="44.81417" lon="1.6975">
        <ele>396.631561279</ele>
        <time>2015-07-27T08:29:08.363Z</time>
      </trkpt>
      <trkpt lat="44.81425" lon="1.69747">
        <ele>398.214508057</ele>
        <time>2015-07-27T08:29:20.385Z</time>
      </trkpt>
      <trkpt lat="44.81426" lon="1.69746">
        <ele>398.352203369</ele>
        <time>2015-07-27T08:29:21.444Z</time>
      </trkpt>
      <trkpt lat="44.81435" lon="1.69746">
        <ele>399.125518799</ele>
        <time>2015-07-27T08:29:28.063Z</time>
      </trkpt>
      <trkpt lat="44.81436" lon="1.69746">
        <ele>399.304077148</ele>
        <time>2015-07-27T08:29:28.437Z</time>
      </trkpt>
      <trkpt lat="44.81444" lon="1.69747">
        <ele>400.305267334</ele>
        <time>2015-07-27T08:29:36.817Z</time>
      </trkpt>
      <trkpt lat="44.81445" lon="1.69748">
        <ele>400.336853027</ele>
        <time>2015-07-27T08:29:37.444Z</time>
      </trkpt>
      <trkpt lat="44.81453" lon="1.69747">
        <ele>400.772338867</ele>
        <time>2015-07-27T08:29:43.367Z</time>
      </trkpt>
      <trkpt lat="44.81454" lon="1.69746">
        <ele>400.84967041</ele>
        <time>2015-07-27T08:29:44.414Z</time>
      </trkpt>
      <trkpt lat="44.81463" lon="1.69748">
        <ele>401.188598633</ele>
        <time>2015-07-27T08:29:54.434Z</time>
      </trkpt>
      <trkpt lat="44.81464" lon="1.69748">
        <ele>401.195892334</ele>
        <time>2015-07-27T08:29:55.394Z</time>
      </trkpt>
      <trkpt lat="44.81472" lon="1.69745">
        <ele>401.93637085</ele>
        <time>2015-07-27T08:30:04.385Z</time>
      </trkpt>
      <trkpt lat="44.81473" lon="1.69745">
        <ele>401.98046875</ele>
        <time>2015-07-27T08:30:05.42Z</time>
      </trkpt>
      <trkpt lat="44.8148" lon="1.69746">
        <ele>402.111602783</ele>
        <time>2015-07-27T08:30:11.392Z</time>
      </trkpt>
      <trkpt lat="44.81482" lon="1.69746">
        <ele>402.069976807</ele>
        <time>2015-07-27T08:30:12.381Z</time>
      </trkpt>
      <trkpt lat="44.81489" lon="1.69742">
        <ele>401.762084961</ele>
        <time>2015-07-27T08:30:19.363Z</time>
      </trkpt>
      <trkpt lat="44.81491" lon="1.69741">
        <ele>401.766723633</ele>
        <time>2015-07-27T08:30:20.362Z</time>
      </trkpt>
      <trkpt lat="44.81499" lon="1.69738">
        <ele>402.340209961</ele>
        <time>2015-07-27T08:30:29.415Z</time>
      </trkpt>
      <trkpt lat="44.815" lon="1.69737">
        <ele>402.363372803</ele>
        <time>2015-07-27T08:30:30.43Z</time>
      </trkpt>
      <trkpt lat="44.81509" lon="1.69733">
        <ele>403.114013672</ele>
        <time>2015-07-27T08:30:40.392Z</time>
      </trkpt>
      <trkpt lat="44.8151" lon="1.69732">
        <ele>403.193969727</ele>
        <time>2015-07-27T08:30:41.471Z</time>
      </trkpt>
      <trkpt lat="44.81518" lon="1.69728">
        <ele>404.026092529</ele>
        <time>2015-07-27T08:30:52.032Z</time>
      </trkpt>
      <trkpt lat="44.81519" lon="1.69728">
        <ele>404.128570557</ele>
        <time>2015-07-27T08:30:52.413Z</time>
      </trkpt>
      <trkpt lat="44.81527" lon="1.69724">
        <ele>405.067108154</ele>
        <time>2015-07-27T08:30:59.359Z</time>
      </trkpt>
      <trkpt lat="44.81528" lon="1.69724">
        <ele>405.181976318</ele>
        <time>2015-07-27T08:31:00.359Z</time>
      </trkpt>
      <trkpt lat="44.81536" lon="1.69723">
        <ele>405.739349365</ele>
        <time>2015-07-27T08:31:07.958Z</time>
      </trkpt>
      <trkpt lat="44.81538" lon="1.69723">
        <ele>405.789001465</ele>
        <time>2015-07-27T08:31:08.363Z</time>
      </trkpt>
      <trkpt lat="44.81546" lon="1.69719">
        <ele>406.328277588</ele>
        <time>2015-07-27T08:31:18.099Z</time>
      </trkpt>
      <trkpt lat="44.81547" lon="1.69719">
        <ele>406.393768311</ele>
        <time>2015-07-27T08:31:18.385Z</time>
      </trkpt>
      <trkpt lat="44.81555" lon="1.69713">
        <ele>406.449829102</ele>
        <time>2015-07-27T08:31:25.389Z</time>
      </trkpt>
      <trkpt lat="44.81556" lon="1.69713">
        <ele>406.544921875</ele>
        <time>2015-07-27T08:31:26.391Z</time>
      </trkpt>
      <trkpt lat="44.81564" lon="1.69708">
        <ele>408.088867188</ele>
        <time>2015-07-27T08:31:36.801Z</time>
      </trkpt>
      <trkpt lat="44.81565" lon="1.69708">
        <ele>408.251647949</ele>
        <time>2015-07-27T08:31:37.399Z</time>
      </trkpt>
      <trkpt lat="44.81572" lon="1.69702">
        <ele>409.125305176</ele>
        <time>2015-07-27T08:31:45.365Z</time>
      </trkpt>
      <trkpt lat="44.81573" lon="1.69701">
        <ele>409.218353271</ele>
        <time>2015-07-27T08:31:46.382Z</time>
      </trkpt>
      <trkpt lat="44.81581" lon="1.69698">
        <ele>409.599121094</ele>
        <time>2015-07-27T08:31:54.419Z</time>
      </trkpt>
      <trkpt lat="44.81582" lon="1.69698">
        <ele>409.612304688</ele>
        <time>2015-07-27T08:31:55.338Z</time>
      </trkpt>
      <trkpt lat="44.81591" lon="1.69696">
        <ele>409.658721924</ele>
        <time>2015-07-27T08:32:03.387Z</time>
      </trkpt>
      <trkpt lat="44.81592" lon="1.69696">
        <ele>409.690063477</ele>
        <time>2015-07-27T08:32:04.379Z</time>
      </trkpt>
      <trkpt lat="44.816" lon="1.69696">
        <ele>410.330749512</ele>
        <time>2015-07-27T08:32:12.39Z</time>
      </trkpt>
      <trkpt lat="44.81601" lon="1.69696">
        <ele>410.437744141</ele>
        <time>2015-07-27T08:32:13.878Z</time>
      </trkpt>
      <trkpt lat="44.8161" lon="1.69695">
        <ele>410.949798584</ele>
        <time>2015-07-27T08:32:21.381Z</time>
      </trkpt>
      <trkpt lat="44.81611" lon="1.69695">
        <ele>411.039642334</ele>
        <time>2015-07-27T08:32:22.399Z</time>
      </trkpt>
      <trkpt lat="44.8162" lon="1.69692">
        <ele>411.189788818</ele>
        <time>2015-07-27T08:32:31.65Z</time>
      </trkpt>
      <trkpt lat="44.81621" lon="1.69691">
        <ele>411.213256836</ele>
        <time>2015-07-27T08:32:32.751Z</time>
      </trkpt>
      <trkpt lat="44.81629" lon="1.69686">
        <ele>411.483917236</ele>
        <time>2015-07-27T08:32:42.341Z</time>
      </trkpt>
      <trkpt lat="44.8163" lon="1.69686">
        <ele>411.603546143</ele>
        <time>2015-07-27T08:32:42.716Z</time>
      </trkpt>
      <trkpt lat="44.81638" lon="1.69685">
        <ele>412.018585205</ele>
        <time>2015-07-27T08:32:50.735Z</time>
      </trkpt>
      <trkpt lat="44.81639" lon="1.69685">
        <ele>412.048400879</ele>
        <time>2015-07-27T08:32:51.72Z</time>
      </trkpt>
      <trkpt lat="44.81647" lon="1.6968">
        <ele>411.891479492</ele>
        <time>2015-07-27T08:32:58.011Z</time>
      </trkpt>
      <trkpt lat="44.81648" lon="1.69679">
        <ele>411.811553955</ele>
        <time>2015-07-27T08:32:58.715Z</time>
      </trkpt>
      <trkpt lat="44.81657" lon="1.69675">
        <ele>412.215820312</ele>
        <time>2015-07-27T08:33:08.67Z</time>
      </trkpt>
      <trkpt lat="44.81657" lon="1.69674">
        <ele>412.336608887</ele>
        <time>2015-07-27T08:33:09.759Z</time>
      </trkpt>
      <trkpt lat="44.81664" lon="1.69668">
        <ele>412.815917969</ele>
        <time>2015-07-27T08:33:17.719Z</time>
      </trkpt>
      <trkpt lat="44.81665" lon="1.69667">
        <ele>412.863555908</ele>
        <time>2015-07-27T08:33:18.699Z</time>
      </trkpt>
      <trkpt lat="44.81673" lon="1.69661">
        <ele>413.854003906</ele>
        <time>2015-07-27T08:33:28.926Z</time>
      </trkpt>
      <trkpt lat="44.81673" lon="1.6966">
        <ele>413.945739746</ele>
        <time>2015-07-27T08:33:29.77Z</time>
      </trkpt>
      <trkpt lat="44.81681" lon="1.69658">
        <ele>414.090484619</ele>
        <time>2015-07-27T08:33:36.722Z</time>
      </trkpt>
      <trkpt lat="44.81682" lon="1.69657">
        <ele>414.101837158</ele>
        <time>2015-07-27T08:33:37.746Z</time>
      </trkpt>
      <trkpt lat="44.8169" lon="1.69653">
        <ele>414.000640869</ele>
        <time>2015-07-27T08:33:45.739Z</time>
      </trkpt>
      <trkpt lat="44.81691" lon="1.69653">
        <ele>414.012390137</ele>
        <time>2015-07-27T08:33:46.727Z</time>
      </trkpt>
      <trkpt lat="44.81698" lon="1.69648">
        <ele>414.130981445</ele>
        <time>2015-07-27T08:33:55.728Z</time>
      </trkpt>
      <trkpt lat="44.81699" lon="1.69647">
        <ele>414.032928467</ele>
        <time>2015-07-27T08:33:56.748Z</time>
      </trkpt>
      <trkpt lat="44.81707" lon="1.69643">
        <ele>413.938415527</ele>
        <time>2015-07-27T08:34:08.657Z</time>
      </trkpt>
      <trkpt lat="44.81708" lon="1.69643">
        <ele>413.963989258</ele>
        <time>2015-07-27T08:34:09.732Z</time>
      </trkpt>
      <trkpt lat="44.81716" lon="1.69641">
        <ele>413.81942749</ele>
        <time>2015-07-27T08:34:18.851Z</time>
      </trkpt>
      <trkpt lat="44.81717" lon="1.6964">
        <ele>413.743835449</ele>
        <time>2015-07-27T08:34:19.736Z</time>
      </trkpt>
      <trkpt lat="44.81726" lon="1.69638">
        <ele>413.598327637</ele>
        <time>2015-07-27T08:34:27.723Z</time>
      </trkpt>
      <trkpt lat="44.81727" lon="1.69637">
        <ele>413.534912109</ele>
        <time>2015-07-27T08:34:28.763Z</time>
      </trkpt>
      <trkpt lat="44.81735" lon="1.69632">
        <ele>413.630950928</ele>
        <time>2015-07-27T08:34:37.664Z</time>
      </trkpt>
      <trkpt lat="44.81735" lon="1.69631">
        <ele>413.660217285</ele>
        <time>2015-07-27T08:34:38.746Z</time>
      </trkpt>
      <trkpt lat="44.81742" lon="1.69623">
        <ele>413.740753174</ele>
        <time>2015-07-27T08:34:47.43Z</time>
      </trkpt>
      <trkpt lat="44.81743" lon="1.69623">
        <ele>413.808105469</ele>
        <time>2015-07-27T08:34:47.721Z</time>
      </trkpt>
      <trkpt lat="44.8175" lon="1.69617">
        <ele>414.298583984</ele>
        <time>2015-07-27T08:34:55.719Z</time>
      </trkpt>
      <trkpt lat="44.81751" lon="1.69617">
        <ele>414.388336182</ele>
        <time>2015-07-27T08:34:56.779Z</time>
      </trkpt>
      <trkpt lat="44.81759" lon="1.69611">
        <ele>414.746520996</ele>
        <time>2015-07-27T08:35:05.777Z</time>
      </trkpt>
      <trkpt lat="44.81759" lon="1.69611">
        <ele>414.652740479</ele>
        <time>2015-07-27T08:35:06.718Z</time>
      </trkpt>
      <trkpt lat="44.81768" lon="1.69614">
        <ele>417.613830566</ele>
        <time>2015-07-27T08:35:52.811Z</time>
      </trkpt>
      <trkpt lat="44.81769" lon="1.69613">
        <ele>417.655395508</ele>
        <time>2015-07-27T08:35:53.822Z</time>
      </trkpt>
      <trkpt lat="44.81778" lon="1.69615">
        <ele>418.216217041</ele>
        <time>2015-07-27T08:36:05.817Z</time>
      </trkpt>
      <trkpt lat="44.81778" lon="1.69615">
        <ele>418.238616943</ele>
        <time>2015-07-27T08:36:06.802Z</time>
      </trkpt>
      <trkpt lat="44.81787" lon="1.69618">
        <ele>418.628265381</ele>
        <time>2015-07-27T08:37:06.816Z</time>
      </trkpt>
      <trkpt lat="44.81787" lon="1.69619">
        <ele>418.589080811</ele>
        <time>2015-07-27T08:37:07.822Z</time>
      </trkpt>
      <trkpt lat="44.81796" lon="1.69621">
        <ele>418.621520996</ele>
        <time>2015-07-27T08:37:24.028Z</time>
      </trkpt>
      <trkpt lat="44.81797" lon="1.69621">
        <ele>418.584686279</ele>
        <time>2015-07-27T08:37:24.818Z</time>
      </trkpt>
      <trkpt lat="44.81804" lon="1.69623">
        <ele>418.222045898</ele>
        <time>2015-07-27T08:37:32.797Z</time>
      </trkpt>
      <trkpt lat="44.81805" lon="1.69623">
        <ele>418.24597168</ele>
        <time>2015-07-27T08:37:34.064Z</time>
      </trkpt>
      <trkpt lat="44.81814" lon="1.69624">
        <ele>418.908325195</ele>
        <time>2015-07-27T08:37:44.813Z</time>
      </trkpt>
      <trkpt lat="44.81815" lon="1.69624">
        <ele>418.941436768</ele>
        <time>2015-07-27T08:37:45.819Z</time>
      </trkpt>
      <trkpt lat="44.81824" lon="1.69624">
        <ele>420.100463867</ele>
        <time>2015-07-27T08:37:54.863Z</time>
      </trkpt>
      <trkpt lat="44.81825" lon="1.69624">
        <ele>420.200073242</ele>
        <time>2015-07-27T08:37:55.756Z</time>
      </trkpt>
      <trkpt lat="44.81834" lon="1.69624">
        <ele>421.040557861</ele>
        <time>2015-07-27T08:38:04.054Z</time>
      </trkpt>
      <trkpt lat="44.81835" lon="1.69625">
        <ele>421.119842529</ele>
        <time>2015-07-27T08:38:04.741Z</time>
      </trkpt>
      <trkpt lat="44.81843" lon="1.69626">
        <ele>421.620727539</ele>
        <time>2015-07-27T08:38:12.807Z</time>
      </trkpt>
      <trkpt lat="44.81844" lon="1.69626">
        <ele>421.699066162</ele>
        <time>2015-07-27T08:38:13.873Z</time>
      </trkpt>
      <trkpt lat="44.81852" lon="1.69627">
        <ele>422.267822266</ele>
        <time>2015-07-27T08:38:21.787Z</time>
      </trkpt>
      <trkpt lat="44.81853" lon="1.69627">
        <ele>422.415283203</ele>
        <time>2015-07-27T08:38:22.784Z</time>
      </trkpt>
      <trkpt lat="44.81862" lon="1.69629">
        <ele>423.292785645</ele>
        <time>2015-07-27T08:38:31.788Z</time>
      </trkpt>
      <trkpt lat="44.81863" lon="1.6963">
        <ele>423.350189209</ele>
        <time>2015-07-27T08:38:32.788Z</time>
      </trkpt>
      <trkpt lat="44.81872" lon="1.69631">
        <ele>423.665740967</ele>
        <time>2015-07-27T08:38:41.291Z</time>
      </trkpt>
      <trkpt lat="44.81873" lon="1.69631">
        <ele>423.656463623</ele>
        <time>2015-07-27T08:38:41.746Z</time>
      </trkpt>
      <trkpt lat="44.81881" lon="1.69631">
        <ele>423.936065674</ele>
        <time>2015-07-27T08:38:50.793Z</time>
      </trkpt>
      <trkpt lat="44.81882" lon="1.69631">
        <ele>424.036315918</ele>
        <time>2015-07-27T08:38:51.814Z</time>
      </trkpt>
      <trkpt lat="44.81889" lon="1.69633">
        <ele>424.433685303</ele>
        <time>2015-07-27T08:38:59.786Z</time>
      </trkpt>
      <trkpt lat="44.81891" lon="1.69633">
        <ele>424.492950439</ele>
        <time>2015-07-27T08:39:00.81Z</time>
      </trkpt>
      <trkpt lat="44.81899" lon="1.69637">
        <ele>425.081848145</ele>
        <time>2015-07-27T08:39:10.8Z</time>
      </trkpt>
      <trkpt lat="44.819" lon="1.69637">
        <ele>425.156005859</ele>
        <time>2015-07-27T08:39:11.817Z</time>
      </trkpt>
      <trkpt lat="44.81907" lon="1.69642">
        <ele>425.639648438</ele>
        <time>2015-07-27T08:39:18.743Z</time>
      </trkpt>
      <trkpt lat="44.81909" lon="1.69643">
        <ele>425.658172607</ele>
        <time>2015-07-27T08:39:19.578Z</time>
      </trkpt>
      <trkpt lat="44.81917" lon="1.69645">
        <ele>425.818664551</ele>
        <time>2015-07-27T08:39:26.608Z</time>
      </trkpt>
      <trkpt lat="44.81918" lon="1.69645">
        <ele>425.888305664</ele>
        <time>2015-07-27T08:39:27.614Z</time>
      </trkpt>
      <trkpt lat="44.81927" lon="1.69643">
        <ele>426.18560791</ele>
        <time>2015-07-27T08:39:39.639Z</time>
      </trkpt>
      <trkpt lat="44.81928" lon="1.69643">
        <ele>426.223266602</ele>
        <time>2015-07-27T08:39:40.649Z</time>
      </trkpt>
      <trkpt lat="44.81936" lon="1.69648">
        <ele>426.785064697</ele>
        <time>2015-07-27T08:39:48.598Z</time>
      </trkpt>
      <trkpt lat="44.81936" lon="1.69649">
        <ele>426.893127441</ele>
        <time>2015-07-27T08:39:49.629Z</time>
      </trkpt>
      <trkpt lat="44.81944" lon="1.6965">
        <ele>427.229644775</ele>
        <time>2015-07-27T08:39:55.603Z</time>
      </trkpt>
      <trkpt lat="44.81946" lon="1.6965">
        <ele>427.255493164</ele>
        <time>2015-07-27T08:39:56.574Z</time>
      </trkpt>
      <trkpt lat="44.81954" lon="1.69647">
        <ele>427.151641846</ele>
        <time>2015-07-27T08:40:07.575Z</time>
      </trkpt>
      <trkpt lat="44.81955" lon="1.69646">
        <ele>427.076416016</ele>
        <time>2015-07-27T08:40:08.597Z</time>
      </trkpt>
      <trkpt lat="44.81962" lon="1.69642">
        <ele>427.236480713</ele>
        <time>2015-07-27T08:40:16.588Z</time>
      </trkpt>
      <trkpt lat="44.81964" lon="1.69641">
        <ele>427.277435303</ele>
        <time>2015-07-27T08:40:17.592Z</time>
      </trkpt>
      <trkpt lat="44.81971" lon="1.69636">
        <ele>427.496887207</ele>
        <time>2015-07-27T08:40:24.514Z</time>
      </trkpt>
      <trkpt lat="44.81972" lon="1.69636">
        <ele>427.544281006</ele>
        <time>2015-07-27T08:40:25.541Z</time>
      </trkpt>
      <trkpt lat="44.81979" lon="1.69632">
        <ele>427.983642578</ele>
        <time>2015-07-27T08:40:35.092Z</time>
      </trkpt>
      <trkpt lat="44.81981" lon="1.69632">
        <ele>428.008483887</ele>
        <time>2015-07-27T08:40:35.566Z</time>
      </trkpt>
      <trkpt lat="44.81989" lon="1.6963">
        <ele>428.130615234</ele>
        <time>2015-07-27T08:40:43.672Z</time>
      </trkpt>
      <trkpt lat="44.8199" lon="1.6963">
        <ele>428.100006104</ele>
        <time>2015-07-27T08:40:44.59Z</time>
      </trkpt>
      <trkpt lat="44.81998" lon="1.69625">
        <ele>428.50604248</ele>
        <time>2015-07-27T08:40:52.762Z</time>
      </trkpt>
      <trkpt lat="44.81999" lon="1.69625">
        <ele>428.677886963</ele>
        <time>2015-07-27T08:40:53.632Z</time>
      </trkpt>
      <trkpt lat="44.82007" lon="1.69624">
        <ele>430.454650879</ele>
        <time>2015-07-27T08:41:04.596Z</time>
      </trkpt>
      <trkpt lat="44.82008" lon="1.69624">
        <ele>430.541168213</ele>
        <time>2015-07-27T08:41:05.547Z</time>
      </trkpt>
      <trkpt lat="44.82017" lon="1.69626">
        <ele>431.595336914</ele>
        <time>2015-07-27T08:41:18.787Z</time>
      </trkpt>
      <trkpt lat="44.82018" lon="1.69626">
        <ele>431.66217041</ele>
        <time>2015-07-27T08:41:19.579Z</time>
      </trkpt>
      <trkpt lat="44.82026" lon="1.69625">
        <ele>432.13583374</ele>
        <time>2015-07-27T08:41:24.614Z</time>
      </trkpt>
      <trkpt lat="44.82027" lon="1.69626">
        <ele>432.282043457</ele>
        <time>2015-07-27T08:41:25.586Z</time>
      </trkpt>
      <trkpt lat="44.82035" lon="1.6963">
        <ele>432.439758301</ele>
        <time>2015-07-27T08:41:37.091Z</time>
      </trkpt>
      <trkpt lat="44.82037" lon="1.69631">
        <ele>432.345794678</ele>
        <time>2015-07-27T08:41:37.578Z</time>
      </trkpt>
      <trkpt lat="44.82046" lon="1.69634">
        <ele>431.80065918</ele>
        <time>2015-07-27T08:41:47.67Z</time>
      </trkpt>
      <trkpt lat="44.82046" lon="1.69634">
        <ele>431.81262207</ele>
        <time>2015-07-27T08:41:48.646Z</time>
      </trkpt>
      <trkpt lat="44.82055" lon="1.69636">
        <ele>432.413116455</ele>
        <time>2015-07-27T08:41:59.607Z</time>
      </trkpt>
      <trkpt lat="44.82055" lon="1.69636">
        <ele>432.5105896</ele>
        <time>2015-07-27T08:42:00.56Z</time>
      </trkpt>
      <trkpt lat="44.82064" lon="1.69639">
        <ele>434.113067627</ele>
        <time>2015-07-27T08:42:12.914Z</time>
      </trkpt>
      <trkpt lat="44.82064" lon="1.69639">
        <ele>434.235107422</ele>
        <time>2015-07-27T08:42:13.621Z</time>
      </trkpt>
      <trkpt lat="44.82073" lon="1.69642">
        <ele>436.767974854</ele>
        <time>2015-07-27T08:42:51.558Z</time>
      </trkpt>
      <trkpt lat="44.82073" lon="1.69642">
        <ele>436.805603027</ele>
        <time>2015-07-27T08:42:52.595Z</time>
      </trkpt>
      <trkpt lat="44.82079" lon="1.69652">
        <ele>437.58581543</ele>
        <time>2015-07-27T08:44:38.586Z</time>
      </trkpt>
      <trkpt lat="44.82079" lon="1.69653">
        <ele>437.715911865</ele>
        <time>2015-07-27T08:44:39.602Z</time>
      </trkpt>
      <trkpt lat="44.82084" lon="1.69662">
        <ele>437.772094727</ele>
        <time>2015-07-27T08:45:16.594Z</time>
      </trkpt>
      <trkpt lat="44.82085" lon="1.69664">
        <ele>437.761535645</ele>
        <time>2015-07-27T08:45:17.612Z</time>
      </trkpt>
      <trkpt lat="44.82089" lon="1.69675">
        <ele>436.952575684</ele>
        <time>2015-07-27T08:46:04.616Z</time>
      </trkpt>
      <trkpt lat="44.8209" lon="1.69676">
        <ele>436.885925293</ele>
        <time>2015-07-27T08:46:05.609Z</time>
      </trkpt>
      <trkpt lat="44.82095" lon="1.69685">
        <ele>436.652618408</ele>
        <time>2015-07-27T08:46:13.611Z</time>
      </trkpt>
      <trkpt lat="44.82096" lon="1.69686">
        <ele>436.645477295</ele>
        <time>2015-07-27T08:46:14.6Z</time>
      </trkpt>
      <trkpt lat="44.82102" lon="1.69694">
        <ele>436.354614258</ele>
        <time>2015-07-27T08:46:23.698Z</time>
      </trkpt>
      <trkpt lat="44.82103" lon="1.69696">
        <ele>436.289306641</ele>
        <time>2015-07-27T08:46:24.596Z</time>
      </trkpt>
      <trkpt lat="44.82109" lon="1.69705">
        <ele>436.121765137</ele>
        <time>2015-07-27T08:46:31.6Z</time>
      </trkpt>
      <trkpt lat="44.82109" lon="1.69706">
        <ele>436.022918701</ele>
        <time>2015-07-27T08:46:32.618Z</time>
      </trkpt>
      <trkpt lat="44.82115" lon="1.69715">
        <ele>435.781646729</ele>
        <time>2015-07-27T08:46:39.621Z</time>
      </trkpt>
      <trkpt lat="44.82116" lon="1.69717">
        <ele>435.760284424</ele>
        <time>2015-07-27T08:46:40.605Z</time>
      </trkpt>
      <trkpt lat="44.82121" lon="1.69726">
        <ele>435.927856445</ele>
        <time>2015-07-27T08:46:47.767Z</time>
      </trkpt>
      <trkpt lat="44.82122" lon="1.69727">
        <ele>435.962799072</ele>
        <time>2015-07-27T08:46:48.613Z</time>
      </trkpt>
      <trkpt lat="44.82127" lon="1.69736">
        <ele>436.420379639</ele>
        <time>2015-07-27T08:46:56.6Z</time>
      </trkpt>
      <trkpt lat="44.82128" lon="1.69737">
        <ele>436.480102539</ele>
        <time>2015-07-27T08:46:57.625Z</time>
      </trkpt>
      <trkpt lat="44.82132" lon="1.69747">
        <ele>436.596038818</ele>
        <time>2015-07-27T08:47:05.627Z</time>
      </trkpt>
      <trkpt lat="44.82133" lon="1.69749">
        <ele>436.654724121</ele>
        <time>2015-07-27T08:47:06.655Z</time>
      </trkpt>
      <trkpt lat="44.82135" lon="1.69761">
        <ele>437.234832764</ele>
        <time>2015-07-27T08:47:13.725Z</time>
      </trkpt>
      <trkpt lat="44.82136" lon="1.69763">
        <ele>437.335327148</ele>
        <time>2015-07-27T08:47:14.612Z</time>
      </trkpt>
      <trkpt lat="44.82139" lon="1.69774">
        <ele>437.920959473</ele>
        <time>2015-07-27T08:47:21.599Z</time>
      </trkpt>
      <trkpt lat="44.82139" lon="1.69775">
        <ele>437.976837158</ele>
        <time>2015-07-27T08:47:22.656Z</time>
      </trkpt>
      <trkpt lat="44.82142" lon="1.69785">
        <ele>437.963684082</ele>
        <time>2015-07-27T08:47:30.599Z</time>
      </trkpt>
      <trkpt lat="44.82142" lon="1.69787">
        <ele>437.941436768</ele>
        <time>2015-07-27T08:47:31.633Z</time>
      </trkpt>
      <trkpt lat="44.82143" lon="1.69799">
        <ele>437.681640625</ele>
        <time>2015-07-27T08:47:39.656Z</time>
      </trkpt>
      <trkpt lat="44.82142" lon="1.69801">
        <ele>437.677398682</ele>
        <time>2015-07-27T08:47:40.555Z</time>
      </trkpt>
      <trkpt lat="44.82143" lon="1.69813">
        <ele>437.496582031</ele>
        <time>2015-07-27T08:47:47.637Z</time>
      </trkpt>
      <trkpt lat="44.82144" lon="1.69815">
        <ele>437.448730469</ele>
        <time>2015-07-27T08:47:48.617Z</time>
      </trkpt>
      <trkpt lat="44.82145" lon="1.69826">
        <ele>437.303894043</ele>
        <time>2015-07-27T08:47:56.595Z</time>
      </trkpt>
      <trkpt lat="44.82146" lon="1.69828">
        <ele>437.28036499</ele>
        <time>2015-07-27T08:47:57.594Z</time>
      </trkpt>
      <trkpt lat="44.82146" lon="1.6984">
        <ele>437.754730225</ele>
        <time>2015-07-27T08:48:08.152Z</time>
      </trkpt>
      <trkpt lat="44.82146" lon="1.69842">
        <ele>437.834625244</ele>
        <time>2015-07-27T08:48:08.625Z</time>
      </trkpt>
      <trkpt lat="44.82145" lon="1.69854">
        <ele>439.129058838</ele>
        <time>2015-07-27T08:48:46.605Z</time>
      </trkpt>
      <trkpt lat="44.82146" lon="1.69854">
        <ele>439.114227295</ele>
        <time>2015-07-27T08:48:47.673Z</time>
      </trkpt>
      <trkpt lat="44.82148" lon="1.69865">
        <ele>439.057769775</ele>
        <time>2015-07-27T08:49:06.596Z</time>
      </trkpt>
      <trkpt lat="44.82149" lon="1.69868">
        <ele>439.11026001</ele>
        <time>2015-07-27T08:49:07.602Z</time>
      </trkpt>
      <trkpt lat="44.82152" lon="1.69878">
        <ele>439.682220459</ele>
        <time>2015-07-27T08:49:15.615Z</time>
      </trkpt>
      <trkpt lat="44.82152" lon="1.69879">
        <ele>439.732208252</ele>
        <time>2015-07-27T08:49:16.637Z</time>
      </trkpt>
      <trkpt lat="44.82154" lon="1.69891">
        <ele>439.699584961</ele>
        <time>2015-07-27T08:49:32.648Z</time>
      </trkpt>
      <trkpt lat="44.82154" lon="1.69892">
        <ele>439.686004639</ele>
        <time>2015-07-27T08:49:33.616Z</time>
      </trkpt>
      <trkpt lat="44.82158" lon="1.69903">
        <ele>440.263244629</ele>
        <time>2015-07-27T08:49:39.609Z</time>
      </trkpt>
      <trkpt lat="44.82158" lon="1.69905">
        <ele>440.332672119</ele>
        <time>2015-07-27T08:49:40.578Z</time>
      </trkpt>
      <trkpt lat="44.82158" lon="1.69917">
        <ele>441.158203125</ele>
        <time>2015-07-27T08:49:48.66Z</time>
      </trkpt>
      <trkpt lat="44.82158" lon="1.69918">
        <ele>441.283630371</ele>
        <time>2015-07-27T08:49:49.618Z</time>
      </trkpt>
      <trkpt lat="44.82157" lon="1.6993">
        <ele>442.121185303</ele>
        <time>2015-07-27T08:49:58.25Z</time>
      </trkpt>
      <trkpt lat="44.82157" lon="1.69931">
        <ele>442.168212891</ele>
        <time>2015-07-27T08:49:58.678Z</time>
      </trkpt>
      <trkpt lat="44.82158" lon="1.69943">
        <ele>441.904022217</ele>
        <time>2015-07-27T08:50:07.612Z</time>
      </trkpt>
      <trkpt lat="44.82157" lon="1.69945">
        <ele>441.841400146</ele>
        <time>2015-07-27T08:50:08.634Z</time>
      </trkpt>
      <trkpt lat="44.82157" lon="1.69957">
        <ele>441.923583984</ele>
        <time>2015-07-27T08:50:14.599Z</time>
      </trkpt>
      <trkpt lat="44.82156" lon="1.69958">
        <ele>441.893859863</ele>
        <time>2015-07-27T08:50:15.611Z</time>
      </trkpt>
      <trkpt lat="44.82157" lon="1.69969">
        <ele>441.690765381</ele>
        <time>2015-07-27T08:50:24.026Z</time>
      </trkpt>
      <trkpt lat="44.82157" lon="1.69971">
        <ele>441.572113037</ele>
        <time>2015-07-27T08:50:24.512Z</time>
      </trkpt>
      <trkpt lat="44.82154" lon="1.69982">
        <ele>441.368560791</ele>
        <time>2015-07-27T08:50:32.615Z</time>
      </trkpt>
      <trkpt lat="44.82154" lon="1.69984">
        <ele>441.406646729</ele>
        <time>2015-07-27T08:50:33.599Z</time>
      </trkpt>
      <trkpt lat="44.82153" lon="1.69995">
        <ele>441.58480835</ele>
        <time>2015-07-27T08:50:42.637Z</time>
      </trkpt>
      <trkpt lat="44.82153" lon="1.69997">
        <ele>441.593994141</ele>
        <time>2015-07-27T08:50:43.596Z</time>
      </trkpt>
      <trkpt lat="44.82153" lon="1.70007">
        <ele>441.449432373</ele>
        <time>2015-07-27T08:50:49.616Z</time>
      </trkpt>
      <trkpt lat="44.82153" lon="1.70009">
        <ele>441.458099365</ele>
        <time>2015-07-27T08:50:50.625Z</time>
      </trkpt>
      <trkpt lat="44.82152" lon="1.70021">
        <ele>441.445892334</ele>
        <time>2015-07-27T08:50:58.732Z</time>
      </trkpt>
      <trkpt lat="44.82152" lon="1.70023">
        <ele>441.408416748</ele>
        <time>2015-07-27T08:50:59.621Z</time>
      </trkpt>
      <trkpt lat="44.82148" lon="1.70034">
        <ele>441.13482666</ele>
        <time>2015-07-27T08:51:07.588Z</time>
      </trkpt>
      <trkpt lat="44.82148" lon="1.70035">
        <ele>441.059906006</ele>
        <time>2015-07-27T08:51:08.617Z</time>
      </trkpt>
      <trkpt lat="44.82146" lon="1.70047">
        <ele>440.698699951</ele>
        <time>2015-07-27T08:51:15.6Z</time>
      </trkpt>
      <trkpt lat="44.82146" lon="1.70049">
        <ele>440.605773926</ele>
        <time>2015-07-27T08:51:16.62Z</time>
      </trkpt>
      <trkpt lat="44.82143" lon="1.7006">
        <ele>440.011352539</ele>
        <time>2015-07-27T08:51:23.62Z</time>
      </trkpt>
      <trkpt lat="44.82143" lon="1.70062">
        <ele>439.971374512</ele>
        <time>2015-07-27T08:51:24.611Z</time>
      </trkpt>
      <trkpt lat="44.82142" lon="1.70074">
        <ele>439.781738281</ele>
        <time>2015-07-27T08:51:33.125Z</time>
      </trkpt>
      <trkpt lat="44.82141" lon="1.70076">
        <ele>439.708221436</ele>
        <time>2015-07-27T08:51:33.573Z</time>
      </trkpt>
      <trkpt lat="44.82138" lon="1.70087">
        <ele>439.283691406</ele>
        <time>2015-07-27T08:51:40.598Z</time>
      </trkpt>
      <trkpt lat="44.82138" lon="1.70089">
        <ele>439.265106201</ele>
        <time>2015-07-27T08:51:41.601Z</time>
      </trkpt>
      <trkpt lat="44.82136" lon="1.70101">
        <ele>439.757720947</ele>
        <time>2015-07-27T08:51:50.592Z</time>
      </trkpt>
      <trkpt lat="44.82135" lon="1.70103">
        <ele>439.860748291</ele>
        <time>2015-07-27T08:51:51.621Z</time>
      </trkpt>
      <trkpt lat="44.82132" lon="1.70115">
        <ele>440.537017822</ele>
        <time>2015-07-27T08:51:59.618Z</time>
      </trkpt>
      <trkpt lat="44.82133" lon="1.70116">
        <ele>440.554321289</ele>
        <time>2015-07-27T08:52:00.557Z</time>
      </trkpt>
      <trkpt lat="44.82133" lon="1.70128">
        <ele>440.461669922</ele>
        <time>2015-07-27T08:52:10.62Z</time>
      </trkpt>
      <trkpt lat="44.82133" lon="1.70129">
        <ele>440.559753418</ele>
        <time>2015-07-27T08:52:11.777Z</time>
      </trkpt>
      <trkpt lat="44.82132" lon="1.70141">
        <ele>440.534606934</ele>
        <time>2015-07-27T08:52:17.948Z</time>
      </trkpt>
      <trkpt lat="44.82132" lon="1.70143">
        <ele>440.492797852</ele>
        <time>2015-07-27T08:52:18.616Z</time>
      </trkpt>
      <trkpt lat="44.82131" lon="1.70155">
        <ele>440.167297363</ele>
        <time>2015-07-27T08:52:26.616Z</time>
      </trkpt>
      <trkpt lat="44.82131" lon="1.70156">
        <ele>440.106903076</ele>
        <time>2015-07-27T08:52:27.599Z</time>
      </trkpt>
      <trkpt lat="44.82127" lon="1.70165">
        <ele>439.607391357</ele>
        <time>2015-07-27T08:52:33.612Z</time>
      </trkpt>
      <trkpt lat="44.82126" lon="1.70167">
        <ele>439.616455078</ele>
        <time>2015-07-27T08:52:34.611Z</time>
      </trkpt>
      <trkpt lat="44.82124" lon="1.70177">
        <ele>439.592773438</ele>
        <time>2015-07-27T08:52:42.596Z</time>
      </trkpt>
      <trkpt lat="44.82123" lon="1.70179">
        <ele>439.555084229</ele>
        <time>2015-07-27T08:52:43.607Z</time>
      </trkpt>
      <trkpt lat="44.82122" lon="1.70191">
        <ele>439.373260498</ele>
        <time>2015-07-27T08:52:54.621Z</time>
      </trkpt>
      <trkpt lat="44.82122" lon="1.70194">
        <ele>439.373168945</ele>
        <time>2015-07-27T08:52:55.615Z</time>
      </trkpt>
      <trkpt lat="44.82122" lon="1.70206">
        <ele>439.657684326</ele>
        <time>2015-07-27T08:53:02.868Z</time>
      </trkpt>
      <trkpt lat="44.82123" lon="1.70207">
        <ele>439.702301025</ele>
        <time>2015-07-27T08:53:03.63Z</time>
      </trkpt>
      <trkpt lat="44.82124" lon="1.70217">
        <ele>440.741607666</ele>
        <time>2015-07-27T08:53:10.556Z</time>
      </trkpt>
      <trkpt lat="44.82124" lon="1.70219">
        <ele>440.777587891</ele>
        <time>2015-07-27T08:53:11.644Z</time>
      </trkpt>
      <trkpt lat="44.82123" lon="1.70231">
        <ele>440.905212402</ele>
        <time>2015-07-27T08:53:19.694Z</time>
      </trkpt>
      <trkpt lat="44.82123" lon="1.70232">
        <ele>440.860717773</ele>
        <time>2015-07-27T08:53:20.633Z</time>
      </trkpt>
      <trkpt lat="44.82122" lon="1.70242">
        <ele>441.268463135</ele>
        <time>2015-07-27T08:53:28.055Z</time>
      </trkpt>
      <trkpt lat="44.82121" lon="1.70245">
        <ele>441.216430664</ele>
        <time>2015-07-27T08:53:28.692Z</time>
      </trkpt>
      <trkpt lat="44.8212" lon="1.70257">
        <ele>441.123443604</ele>
        <time>2015-07-27T08:53:39.58Z</time>
      </trkpt>
      <trkpt lat="44.8212" lon="1.70259">
        <ele>441.125335693</ele>
        <time>2015-07-27T08:53:40.623Z</time>
      </trkpt>
      <trkpt lat="44.82118" lon="1.7027">
        <ele>441.177581787</ele>
        <time>2015-07-27T08:53:47.795Z</time>
      </trkpt>
      <trkpt lat="44.82119" lon="1.70272">
        <ele>441.261627197</ele>
        <time>2015-07-27T08:53:48.596Z</time>
      </trkpt>
      <trkpt lat="44.8212" lon="1.70283">
        <ele>441.211730957</ele>
        <time>2015-07-27T08:53:58.016Z</time>
      </trkpt>
      <trkpt lat="44.82119" lon="1.70286">
        <ele>441.147247314</ele>
        <time>2015-07-27T08:53:58.614Z</time>
      </trkpt>
      <trkpt lat="44.82118" lon="1.70298">
        <ele>441.184753418</ele>
        <time>2015-07-27T08:54:04.617Z</time>
      </trkpt>
      <trkpt lat="44.82118" lon="1.70299">
        <ele>441.279418945</ele>
        <time>2015-07-27T08:54:05.607Z</time>
      </trkpt>
      <trkpt lat="44.82118" lon="1.70312">
        <ele>441.770721436</ele>
        <time>2015-07-27T08:54:13.808Z</time>
      </trkpt>
      <trkpt lat="44.82118" lon="1.70313">
        <ele>441.915130615</ele>
        <time>2015-07-27T08:54:14.778Z</time>
      </trkpt>
      <trkpt lat="44.82118" lon="1.70325">
        <ele>442.30166626</ele>
        <time>2015-07-27T08:54:22.6Z</time>
      </trkpt>
      <trkpt lat="44.82118" lon="1.70326">
        <ele>442.33404541</ele>
        <time>2015-07-27T08:54:23.659Z</time>
      </trkpt>
      <trkpt lat="44.82115" lon="1.70337">
        <ele>443.640716553</ele>
        <time>2015-07-27T08:55:22.593Z</time>
      </trkpt>
      <trkpt lat="44.82116" lon="1.70339">
        <ele>443.663360596</ele>
        <time>2015-07-27T08:55:23.596Z</time>
      </trkpt>
      <trkpt lat="44.82118" lon="1.70351">
        <ele>443.295928955</ele>
        <time>2015-07-27T08:55:34.593Z</time>
      </trkpt>
      <trkpt lat="44.82118" lon="1.70351">
        <ele>443.209686279</ele>
        <time>2015-07-27T08:55:35.583Z</time>
      </trkpt>
      <trkpt lat="44.8212" lon="1.70362">
        <ele>442.733642578</ele>
        <time>2015-07-27T08:55:45.591Z</time>
      </trkpt>
      <trkpt lat="44.82121" lon="1.70364">
        <ele>442.717712402</ele>
        <time>2015-07-27T08:55:46.59Z</time>
      </trkpt>
      <trkpt lat="44.82123" lon="1.70376">
        <ele>443.055908203</ele>
        <time>2015-07-27T08:55:55.583Z</time>
      </trkpt>
      <trkpt lat="44.82123" lon="1.70377">
        <ele>443.057250977</ele>
        <time>2015-07-27T08:55:56.58Z</time>
      </trkpt>
      <trkpt lat="44.82123" lon="1.70389">
        <ele>443.572937012</ele>
        <time>2015-07-27T08:56:07.596Z</time>
      </trkpt>
      <trkpt lat="44.82123" lon="1.70391">
        <ele>443.620697021</ele>
        <time>2015-07-27T08:56:08.593Z</time>
      </trkpt>
      <trkpt lat="44.82124" lon="1.70402">
        <ele>443.315979004</ele>
        <time>2015-07-27T08:56:17.542Z</time>
      </trkpt>
      <trkpt lat="44.82125" lon="1.70403">
        <ele>443.232208252</ele>
        <time>2015-07-27T08:56:18.589Z</time>
      </trkpt>
      <trkpt lat="44.8213" lon="1.70412">
        <ele>442.743560791</ele>
        <time>2015-07-27T08:56:27.583Z</time>
      </trkpt>
      <trkpt lat="44.82131" lon="1.70413">
        <ele>442.717407227</ele>
        <time>2015-07-27T08:56:28.578Z</time>
      </trkpt>
      <trkpt lat="44.82131" lon="1.70425">
        <ele>442.52911377</ele>
        <time>2015-07-27T08:56:34.591Z</time>
      </trkpt>
      <trkpt lat="44.82132" lon="1.70427">
        <ele>442.550628662</ele>
        <time>2015-07-27T08:56:35.587Z</time>
      </trkpt>
      <trkpt lat="44.82135" lon="1.70439">
        <ele>441.933288574</ele>
        <time>2015-07-27T08:56:46.641Z</time>
      </trkpt>
      <trkpt lat="44.82136" lon="1.70439">
        <ele>441.93069458</ele>
        <time>2015-07-27T08:56:47.633Z</time>
      </trkpt>
      <trkpt lat="44.8214" lon="1.70448">
        <ele>442.058959961</ele>
        <time>2015-07-27T08:56:55.615Z</time>
      </trkpt>
      <trkpt lat="44.82141" lon="1.7045">
        <ele>442.075042725</ele>
        <time>2015-07-27T08:56:56.61Z</time>
      </trkpt>
      <trkpt lat="44.82145" lon="1.7046">
        <ele>442.552062988</ele>
        <time>2015-07-27T08:57:04.607Z</time>
      </trkpt>
      <trkpt lat="44.82146" lon="1.70462">
        <ele>442.579528809</ele>
        <time>2015-07-27T08:57:05.62Z</time>
      </trkpt>
      <trkpt lat="44.8215" lon="1.70473">
        <ele>443.457550049</ele>
        <time>2015-07-27T08:57:14.603Z</time>
      </trkpt>
      <trkpt lat="44.82149" lon="1.70474">
        <ele>443.580413818</ele>
        <time>2015-07-27T08:57:15.621Z</time>
      </trkpt>
      <trkpt lat="44.82151" lon="1.70486">
        <ele>445.201873779</ele>
        <time>2015-07-27T08:57:25.608Z</time>
      </trkpt>
      <trkpt lat="44.82151" lon="1.70488">
        <ele>445.384185791</ele>
        <time>2015-07-27T08:57:26.607Z</time>
      </trkpt>
      <trkpt lat="44.82153" lon="1.70499">
        <ele>446.639099121</ele>
        <time>2015-07-27T08:57:33.612Z</time>
      </trkpt>
      <trkpt lat="44.82153" lon="1.70501">
        <ele>446.78616333</ele>
        <time>2015-07-27T08:57:34.608Z</time>
      </trkpt>
      <trkpt lat="44.82159" lon="1.70511">
        <ele>447.734771729</ele>
        <time>2015-07-27T08:57:43.618Z</time>
      </trkpt>
      <trkpt lat="44.82159" lon="1.70512">
        <ele>447.801605225</ele>
        <time>2015-07-27T08:57:45.162Z</time>
      </trkpt>
      <trkpt lat="44.82161" lon="1.70524">
        <ele>448.107421875</ele>
        <time>2015-07-27T08:57:50.609Z</time>
      </trkpt>
      <trkpt lat="44.82162" lon="1.70526">
        <ele>448.118286133</ele>
        <time>2015-07-27T08:57:51.618Z</time>
      </trkpt>
      <trkpt lat="44.82165" lon="1.70537">
        <ele>448.077606201</ele>
        <time>2015-07-27T08:58:02.599Z</time>
      </trkpt>
      <trkpt lat="44.82165" lon="1.70539">
        <ele>448.048736572</ele>
        <time>2015-07-27T08:58:03.54Z</time>
      </trkpt>
      <trkpt lat="44.82166" lon="1.7055">
        <ele>448.754516602</ele>
        <time>2015-07-27T08:58:12.612Z</time>
      </trkpt>
      <trkpt lat="44.82167" lon="1.70552">
        <ele>448.807128906</ele>
        <time>2015-07-27T08:58:13.643Z</time>
      </trkpt>
      <trkpt lat="44.82165" lon="1.70564">
        <ele>449.116943359</ele>
        <time>2015-07-27T08:58:20.632Z</time>
      </trkpt>
      <trkpt lat="44.82166" lon="1.70565">
        <ele>449.272186279</ele>
        <time>2015-07-27T08:58:21.617Z</time>
      </trkpt>
      <trkpt lat="44.82169" lon="1.70576">
        <ele>449.95211792</ele>
        <time>2015-07-27T08:58:29.624Z</time>
      </trkpt>
      <trkpt lat="44.82169" lon="1.70578">
        <ele>449.938964844</ele>
        <time>2015-07-27T08:58:30.623Z</time>
      </trkpt>
      <trkpt lat="44.82172" lon="1.7059">
        <ele>450.224395752</ele>
        <time>2015-07-27T08:58:38.549Z</time>
      </trkpt>
      <trkpt lat="44.82171" lon="1.70591">
        <ele>450.309326172</ele>
        <time>2015-07-27T08:58:39.609Z</time>
      </trkpt>
      <trkpt lat="44.82173" lon="1.70602">
        <ele>451.19052124</ele>
        <time>2015-07-27T08:59:06.645Z</time>
      </trkpt>
      <trkpt lat="44.82174" lon="1.70603">
        <ele>451.222961426</ele>
        <time>2015-07-27T08:59:07.624Z</time>
      </trkpt>
      <trkpt lat="44.82175" lon="1.70615">
        <ele>451.341186523</ele>
        <time>2015-07-27T08:59:17.603Z</time>
      </trkpt>
      <trkpt lat="44.82176" lon="1.70617">
        <ele>451.465789795</ele>
        <time>2015-07-27T08:59:18.625Z</time>
      </trkpt>
      <trkpt lat="44.8218" lon="1.70628">
        <ele>453.162963867</ele>
        <time>2015-07-27T08:59:45.615Z</time>
      </trkpt>
      <trkpt lat="44.8218" lon="1.70629">
        <ele>453.294372559</ele>
        <time>2015-07-27T08:59:46.61Z</time>
      </trkpt>
      <trkpt lat="44.82182" lon="1.70641">
        <ele>453.907806396</ele>
        <time>2015-07-27T08:59:56.604Z</time>
      </trkpt>
      <trkpt lat="44.82182" lon="1.70642">
        <ele>453.944152832</ele>
        <time>2015-07-27T08:59:57.609Z</time>
      </trkpt>
      <trkpt lat="44.82183" lon="1.70653">
        <ele>454.3621521</ele>
        <time>2015-07-27T09:00:06.611Z</time>
      </trkpt>
      <trkpt lat="44.82183" lon="1.70655">
        <ele>454.409301758</ele>
        <time>2015-07-27T09:00:07.612Z</time>
      </trkpt>
      <trkpt lat="44.82187" lon="1.70666">
        <ele>454.965423584</ele>
        <time>2015-07-27T09:00:16.621Z</time>
      </trkpt>
      <trkpt lat="44.82188" lon="1.70667">
        <ele>455.065216064</ele>
        <time>2015-07-27T09:00:17.613Z</time>
      </trkpt>
      <trkpt lat="44.82191" lon="1.70678">
        <ele>456.465545654</ele>
        <time>2015-07-27T09:00:30.623Z</time>
      </trkpt>
      <trkpt lat="44.82192" lon="1.70679">
        <ele>456.536529541</ele>
        <time>2015-07-27T09:00:31.601Z</time>
      </trkpt>
      <trkpt lat="44.82194" lon="1.7069">
        <ele>456.951293945</ele>
        <time>2015-07-27T09:00:40.155Z</time>
      </trkpt>
      <trkpt lat="44.82194" lon="1.70691">
        <ele>457.011444092</ele>
        <time>2015-07-27T09:00:41.16Z</time>
      </trkpt>
      <trkpt lat="44.82193" lon="1.70704">
        <ele>457.684692383</ele>
        <time>2015-07-27T09:00:50.278Z</time>
      </trkpt>
      <trkpt lat="44.82193" lon="1.70705">
        <ele>457.752319336</ele>
        <time>2015-07-27T09:00:52.068Z</time>
      </trkpt>
      <trkpt lat="44.82195" lon="1.70717">
        <ele>458.565612793</ele>
        <time>2015-07-27T09:01:03.564Z</time>
      </trkpt>
      <trkpt lat="44.82196" lon="1.70718">
        <ele>458.568969727</ele>
        <time>2015-07-27T09:01:04.069Z</time>
      </trkpt>
      <trkpt lat="44.82199" lon="1.70727">
        <ele>459.101989746</ele>
        <time>2015-07-27T09:01:08.624Z</time>
      </trkpt>
      <trkpt lat="44.82199" lon="1.7073">
        <ele>459.140167236</ele>
        <time>2015-07-27T09:01:09.573Z</time>
      </trkpt>
      <trkpt lat="44.822" lon="1.70742">
        <ele>459.322174072</ele>
        <time>2015-07-27T09:01:17.599Z</time>
      </trkpt>
      <trkpt lat="44.822" lon="1.70744">
        <ele>459.326751709</ele>
        <time>2015-07-27T09:01:18.623Z</time>
      </trkpt>
      <trkpt lat="44.822" lon="1.70756">
        <ele>459.211151123</ele>
        <time>2015-07-27T09:01:27.596Z</time>
      </trkpt>
      <trkpt lat="44.822" lon="1.70759">
        <ele>459.231536865</ele>
        <time>2015-07-27T09:01:28.648Z</time>
      </trkpt>
      <trkpt lat="44.82197" lon="1.70769">
        <ele>459.108917236</ele>
        <time>2015-07-27T09:01:36.592Z</time>
      </trkpt>
      <trkpt lat="44.82196" lon="1.70771">
        <ele>459.166137695</ele>
        <time>2015-07-27T09:01:37.502Z</time>
      </trkpt>
      <trkpt lat="44.82196" lon="1.70782">
        <ele>459.661834717</ele>
        <time>2015-07-27T09:01:46.629Z</time>
      </trkpt>
      <trkpt lat="44.82197" lon="1.70785">
        <ele>459.70223999</ele>
        <time>2015-07-27T09:01:47.574Z</time>
      </trkpt>
      <trkpt lat="44.82198" lon="1.70796">
        <ele>459.900909424</ele>
        <time>2015-07-27T09:01:56.697Z</time>
      </trkpt>
      <trkpt lat="44.82198" lon="1.70797">
        <ele>459.851623535</ele>
        <time>2015-07-27T09:01:57.801Z</time>
      </trkpt>
      <trkpt lat="44.82197" lon="1.70809">
        <ele>459.378875732</ele>
        <time>2015-07-27T09:02:06.707Z</time>
      </trkpt>
      <trkpt lat="44.82197" lon="1.7081">
        <ele>459.34664917</ele>
        <time>2015-07-27T09:02:07.756Z</time>
      </trkpt>
      <trkpt lat="44.82199" lon="1.70822">
        <ele>459.367370605</ele>
        <time>2015-07-27T09:02:15.436Z</time>
      </trkpt>
      <trkpt lat="44.82199" lon="1.70824">
        <ele>459.409606934</ele>
        <time>2015-07-27T09:02:16.807Z</time>
      </trkpt>
      <trkpt lat="44.82199" lon="1.70835">
        <ele>459.59588623</ele>
        <time>2015-07-27T09:02:23.627Z</time>
      </trkpt>
      <trkpt lat="44.82199" lon="1.70836">
        <ele>459.637939453</ele>
        <time>2015-07-27T09:02:24.448Z</time>
      </trkpt>
      <trkpt lat="44.82198" lon="1.70848">
        <ele>460.375854492</ele>
        <time>2015-07-27T09:02:32.467Z</time>
      </trkpt>
      <trkpt lat="44.82198" lon="1.70849">
        <ele>460.454956055</ele>
        <time>2015-07-27T09:02:33.421Z</time>
      </trkpt>
      <trkpt lat="44.82199" lon="1.70861">
        <ele>461.008392334</ele>
        <time>2015-07-27T09:02:43.417Z</time>
      </trkpt>
      <trkpt lat="44.822" lon="1.70863">
        <ele>461.016052246</ele>
        <time>2015-07-27T09:02:44.421Z</time>
      </trkpt>
      <trkpt lat="44.822" lon="1.70874">
        <ele>461.355285645</ele>
        <time>2015-07-27T09:02:52.387Z</time>
      </trkpt>
      <trkpt lat="44.822" lon="1.70876">
        <ele>461.42074585</ele>
        <time>2015-07-27T09:02:53.414Z</time>
      </trkpt>
      <trkpt lat="44.822" lon="1.70888">
        <ele>462.382446289</ele>
        <time>2015-07-27T09:03:02.831Z</time>
      </trkpt>
      <trkpt lat="44.822" lon="1.7089">
        <ele>462.497192383</ele>
        <time>2015-07-27T09:03:03.421Z</time>
      </trkpt>
      <trkpt lat="44.82201" lon="1.70901">
        <ele>463.441833496</ele>
        <time>2015-07-27T09:03:12.709Z</time>
      </trkpt>
      <trkpt lat="44.82201" lon="1.70903">
        <ele>463.515258789</ele>
        <time>2015-07-27T09:03:13.427Z</time>
      </trkpt>
      <trkpt lat="44.82204" lon="1.70914">
        <ele>464.111114502</ele>
        <time>2015-07-27T09:03:24.444Z</time>
      </trkpt>
      <trkpt lat="44.82205" lon="1.70916">
        <ele>464.181060791</ele>
        <time>2015-07-27T09:03:25.437Z</time>
      </trkpt>
      <trkpt lat="44.82208" lon="1.70926">
        <ele>464.168060303</ele>
        <time>2015-07-27T09:03:31.378Z</time>
      </trkpt>
      <trkpt lat="44.82208" lon="1.70928">
        <ele>464.18170166</ele>
        <time>2015-07-27T09:03:32.424Z</time>
      </trkpt>
      <trkpt lat="44.82207" lon="1.70939">
        <ele>464.636077881</ele>
        <time>2015-07-27T09:03:40.452Z</time>
      </trkpt>
      <trkpt lat="44.82207" lon="1.7094">
        <ele>464.661560059</ele>
        <time>2015-07-27T09:03:41.417Z</time>
      </trkpt>
      <trkpt lat="44.82205" lon="1.70951">
        <ele>464.999542236</ele>
        <time>2015-07-27T09:03:49.418Z</time>
      </trkpt>
      <trkpt lat="44.82206" lon="1.70953">
        <ele>465.07321167</ele>
        <time>2015-07-27T09:03:50.417Z</time>
      </trkpt>
      <trkpt lat="44.82203" lon="1.70965">
        <ele>465.94140625</ele>
        <time>2015-07-27T09:04:11.411Z</time>
      </trkpt>
      <trkpt lat="44.82203" lon="1.70965">
        <ele>466.070892334</ele>
        <time>2015-07-27T09:04:12.403Z</time>
      </trkpt>
      <trkpt lat="44.82202" lon="1.70978">
        <ele>465.759887695</ele>
        <time>2015-07-27T09:04:52.155Z</time>
      </trkpt>
      <trkpt lat="44.82202" lon="1.70979">
        <ele>465.753936768</ele>
        <time>2015-07-27T09:04:52.43Z</time>
      </trkpt>
      <trkpt lat="44.82203" lon="1.70991">
        <ele>465.710968018</ele>
        <time>2015-07-27T09:04:59.414Z</time>
      </trkpt>
      <trkpt lat="44.82203" lon="1.70992">
        <ele>465.683776855</ele>
        <time>2015-07-27T09:05:00.42Z</time>
      </trkpt>
      <trkpt lat="44.82201" lon="1.71003">
        <ele>466.148223877</ele>
        <time>2015-07-27T09:05:10.412Z</time>
      </trkpt>
      <trkpt lat="44.82201" lon="1.71005">
        <ele>466.232635498</ele>
        <time>2015-07-27T09:05:11.416Z</time>
      </trkpt>
      <trkpt lat="44.822" lon="1.71017">
        <ele>466.24319458</ele>
        <time>2015-07-27T09:05:19.417Z</time>
      </trkpt>
      <trkpt lat="44.822" lon="1.71019">
        <ele>466.226715088</ele>
        <time>2015-07-27T09:05:20.429Z</time>
      </trkpt>
      <trkpt lat="44.822" lon="1.71031">
        <ele>466.165344238</ele>
        <time>2015-07-27T09:05:26.419Z</time>
      </trkpt>
      <trkpt lat="44.822" lon="1.71033">
        <ele>466.159759521</ele>
        <time>2015-07-27T09:05:27.413Z</time>
      </trkpt>
      <trkpt lat="44.82197" lon="1.71043">
        <ele>466.040527344</ele>
        <time>2015-07-27T09:05:33.4Z</time>
      </trkpt>
      <trkpt lat="44.82197" lon="1.71045">
        <ele>466.066650391</ele>
        <time>2015-07-27T09:05:34.422Z</time>
      </trkpt>
      <trkpt lat="44.82197" lon="1.71058">
        <ele>466.265869141</ele>
        <time>2015-07-27T09:05:43.455Z</time>
      </trkpt>
      <trkpt lat="44.82197" lon="1.71059">
        <ele>466.340576172</ele>
        <time>2015-07-27T09:05:44.414Z</time>
      </trkpt>
      <trkpt lat="44.82199" lon="1.7107">
        <ele>466.810760498</ele>
        <time>2015-07-27T09:05:52.089Z</time>
      </trkpt>
      <trkpt lat="44.82199" lon="1.71072">
        <ele>466.895843506</ele>
        <time>2015-07-27T09:05:52.419Z</time>
      </trkpt>
      <trkpt lat="44.82202" lon="1.71083">
        <ele>467.176696777</ele>
        <time>2015-07-27T09:05:58.406Z</time>
      </trkpt>
      <trkpt lat="44.82202" lon="1.71084">
        <ele>467.202941895</ele>
        <time>2015-07-27T09:05:59.422Z</time>
      </trkpt>
      <trkpt lat="44.82201" lon="1.71096">
        <ele>466.977355957</ele>
        <time>2015-07-27T09:06:08.414Z</time>
      </trkpt>
      <trkpt lat="44.82202" lon="1.71098">
        <ele>466.928771973</ele>
        <time>2015-07-27T09:06:09.401Z</time>
      </trkpt>
      <trkpt lat="44.82201" lon="1.71108">
        <ele>466.869812012</ele>
        <time>2015-07-27T09:06:15.408Z</time>
      </trkpt>
      <trkpt lat="44.82201" lon="1.7111">
        <ele>466.87979126</ele>
        <time>2015-07-27T09:06:16.415Z</time>
      </trkpt>
      <trkpt lat="44.822" lon="1.71121">
        <ele>467.066192627</ele>
        <time>2015-07-27T09:06:23.427Z</time>
      </trkpt>
      <trkpt lat="44.822" lon="1.71123">
        <ele>467.012329102</ele>
        <time>2015-07-27T09:06:24.449Z</time>
      </trkpt>
      <trkpt lat="44.82198" lon="1.71135">
        <ele>467.303863525</ele>
        <time>2015-07-27T09:06:30.42Z</time>
      </trkpt>
      <trkpt lat="44.82198" lon="1.71136">
        <ele>467.338256836</ele>
        <time>2015-07-27T09:06:31.422Z</time>
      </trkpt>
      <trkpt lat="44.82197" lon="1.71148">
        <ele>467.550262451</ele>
        <time>2015-07-27T09:06:38.402Z</time>
      </trkpt>
      <trkpt lat="44.82197" lon="1.71149">
        <ele>467.559417725</ele>
        <time>2015-07-27T09:06:39.406Z</time>
      </trkpt>
      <trkpt lat="44.8219" lon="1.71154">
        <ele>468.346405029</ele>
        <time>2015-07-27T09:07:18.114Z</time>
      </trkpt>
      <trkpt lat="44.82188" lon="1.71154">
        <ele>468.364837646</ele>
        <time>2015-07-27T09:07:18.433Z</time>
      </trkpt>
      <trkpt lat="44.8218" lon="1.71155">
        <ele>468.798797607</ele>
        <time>2015-07-27T09:07:27.424Z</time>
      </trkpt>
      <trkpt lat="44.82178" lon="1.71155">
        <ele>468.853729248</ele>
        <time>2015-07-27T09:07:28.422Z</time>
      </trkpt>
      <trkpt lat="44.8217" lon="1.71156">
        <ele>469.305999756</ele>
        <time>2015-07-27T09:07:35.435Z</time>
      </trkpt>
      <trkpt lat="44.82168" lon="1.71157">
        <ele>469.315795898</ele>
        <time>2015-07-27T09:07:36.424Z</time>
      </trkpt>
      <trkpt lat="44.8216" lon="1.71162">
        <ele>469.593109131</ele>
        <time>2015-07-27T09:07:44.34Z</time>
      </trkpt>
      <trkpt lat="44.8216" lon="1.71162">
        <ele>469.717895508</ele>
        <time>2015-07-27T09:07:45.37Z</time>
      </trkpt>
      <trkpt lat="44.82153" lon="1.7117">
        <ele>469.768341064</ele>
        <time>2015-07-27T09:07:57.419Z</time>
      </trkpt>
      <trkpt lat="44.82152" lon="1.7117">
        <ele>469.67666626</ele>
        <time>2015-07-27T09:07:58.439Z</time>
      </trkpt>
      <trkpt lat="44.82144" lon="1.71172">
        <ele>468.863189697</ele>
        <time>2015-07-27T09:08:05.421Z</time>
      </trkpt>
      <trkpt lat="44.82143" lon="1.71173">
        <ele>468.759674072</ele>
        <time>2015-07-27T09:08:06.418Z</time>
      </trkpt>
      <trkpt lat="44.82135" lon="1.71172">
        <ele>468.202941895</ele>
        <time>2015-07-27T09:08:11.4Z</time>
      </trkpt>
      <trkpt lat="44.82134" lon="1.71172">
        <ele>468.085693359</ele>
        <time>2015-07-27T09:08:12.41Z</time>
      </trkpt>
      <trkpt lat="44.82125" lon="1.71173">
        <ele>467.510162354</ele>
        <time>2015-07-27T09:08:19.424Z</time>
      </trkpt>
      <trkpt lat="44.82124" lon="1.71173">
        <ele>467.465515137</ele>
        <time>2015-07-27T09:08:20.422Z</time>
      </trkpt>
      <trkpt lat="44.82116" lon="1.71174">
        <ele>467.044708252</ele>
        <time>2015-07-27T09:08:26.412Z</time>
      </trkpt>
      <trkpt lat="44.82114" lon="1.71174">
        <ele>466.978393555</ele>
        <time>2015-07-27T09:08:27.457Z</time>
      </trkpt>
      <trkpt lat="44.82106" lon="1.71175">
        <ele>466.820495605</ele>
        <time>2015-07-27T09:08:34.418Z</time>
      </trkpt>
      <trkpt lat="44.82105" lon="1.71174">
        <ele>466.764404297</ele>
        <time>2015-07-27T09:08:35.416Z</time>
      </trkpt>
      <trkpt lat="44.82096" lon="1.71174">
        <ele>466.008575439</ele>
        <time>2015-07-27T09:08:44.451Z</time>
      </trkpt>
      <trkpt lat="44.82095" lon="1.71174">
        <ele>465.88760376</ele>
        <time>2015-07-27T09:08:45.407Z</time>
      </trkpt>
      <trkpt lat="44.82088" lon="1.71173">
        <ele>465.236358643</ele>
        <time>2015-07-27T09:08:51.416Z</time>
      </trkpt>
      <trkpt lat="44.82086" lon="1.71172">
        <ele>465.197265625</ele>
        <time>2015-07-27T09:08:52.408Z</time>
      </trkpt>
      <trkpt lat="44.82079" lon="1.7117">
        <ele>464.58996582</ele>
        <time>2015-07-27T09:09:00.419Z</time>
      </trkpt>
      <trkpt lat="44.82077" lon="1.7117">
        <ele>464.474060059</ele>
        <time>2015-07-27T09:09:01.406Z</time>
      </trkpt>
      <trkpt lat="44.82068" lon="1.71167">
        <ele>463.963653564</ele>
        <time>2015-07-27T09:09:07.418Z</time>
      </trkpt>
      <trkpt lat="44.82067" lon="1.71167">
        <ele>463.802856445</ele>
        <time>2015-07-27T09:09:08.417Z</time>
      </trkpt>
      <trkpt lat="44.82058" lon="1.71165">
        <ele>462.051055908</ele>
        <time>2015-07-27T09:09:17.414Z</time>
      </trkpt>
      <trkpt lat="44.82057" lon="1.71165">
        <ele>461.825500488</ele>
        <time>2015-07-27T09:09:18.41Z</time>
      </trkpt>
      <trkpt lat="44.82048" lon="1.71164">
        <ele>460.529266357</ele>
        <time>2015-07-27T09:09:25.414Z</time>
      </trkpt>
      <trkpt lat="44.82047" lon="1.71164">
        <ele>460.371673584</ele>
        <time>2015-07-27T09:09:26.423Z</time>
      </trkpt>
      <trkpt lat="44.82038" lon="1.71165">
        <ele>459.290985107</ele>
        <time>2015-07-27T09:09:34.413Z</time>
      </trkpt>
      <trkpt lat="44.82038" lon="1.71165">
        <ele>459.156463623</ele>
        <time>2015-07-27T09:09:35.421Z</time>
      </trkpt>
      <trkpt lat="44.8203" lon="1.71165">
        <ele>458.29208374</ele>
        <time>2015-07-27T09:09:42.137Z</time>
      </trkpt>
      <trkpt lat="44.82028" lon="1.71165">
        <ele>458.177124023</ele>
        <time>2015-07-27T09:09:42.427Z</time>
      </trkpt>
      <trkpt lat="44.8202" lon="1.71164">
        <ele>457.399658203</ele>
        <time>2015-07-27T09:09:51.413Z</time>
      </trkpt>
      <trkpt lat="44.82019" lon="1.71163">
        <ele>457.428497314</ele>
        <time>2015-07-27T09:09:52.413Z</time>
      </trkpt>
      <trkpt lat="44.82011" lon="1.71163">
        <ele>457.223358154</ele>
        <time>2015-07-27T09:09:58.42Z</time>
      </trkpt>
      <trkpt lat="44.8201" lon="1.71163">
        <ele>457.203216553</ele>
        <time>2015-07-27T09:09:59.42Z</time>
      </trkpt>
      <trkpt lat="44.82001" lon="1.71162">
        <ele>456.699432373</ele>
        <time>2015-07-27T09:10:07.406Z</time>
      </trkpt>
      <trkpt lat="44.82" lon="1.71162">
        <ele>456.62701416</ele>
        <time>2015-07-27T09:10:08.408Z</time>
      </trkpt>
      <trkpt lat="44.81991" lon="1.71162">
        <ele>456.146453857</ele>
        <time>2015-07-27T09:10:16.407Z</time>
      </trkpt>
      <trkpt lat="44.8199" lon="1.71162">
        <ele>456.054901123</ele>
        <time>2015-07-27T09:10:17.401Z</time>
      </trkpt>
      <trkpt lat="44.81981" lon="1.71162">
        <ele>455.621063232</ele>
        <time>2015-07-27T09:10:24.419Z</time>
      </trkpt>
      <trkpt lat="44.8198" lon="1.71162">
        <ele>455.560211182</ele>
        <time>2015-07-27T09:10:25.414Z</time>
      </trkpt>
      <trkpt lat="44.81972" lon="1.71165">
        <ele>455.711425781</ele>
        <time>2015-07-27T09:10:32.44Z</time>
      </trkpt>
      <trkpt lat="44.81971" lon="1.71165">
        <ele>455.743133545</ele>
        <time>2015-07-27T09:10:33.418Z</time>
      </trkpt>
      <trkpt lat="44.81963" lon="1.71165">
        <ele>455.48260498</ele>
        <time>2015-07-27T09:10:52.418Z</time>
      </trkpt>
      <trkpt lat="44.81962" lon="1.71165">
        <ele>455.453125</ele>
        <time>2015-07-27T09:10:53.402Z</time>
      </trkpt>
      <trkpt lat="44.81954" lon="1.71163">
        <ele>454.820281982</ele>
        <time>2015-07-27T09:11:03.486Z</time>
      </trkpt>
      <trkpt lat="44.81952" lon="1.7116">
        <ele>454.708190918</ele>
        <time>2015-07-27T09:11:04.436Z</time>
      </trkpt>
      <trkpt lat="44.81944" lon="1.71157">
        <ele>454.190917969</ele>
        <time>2015-07-27T09:11:09.434Z</time>
      </trkpt>
      <trkpt lat="44.81942" lon="1.71157">
        <ele>454.106323242</ele>
        <time>2015-07-27T09:11:10.446Z</time>
      </trkpt>
      <trkpt lat="44.81934" lon="1.71158">
        <ele>453.47354126</ele>
        <time>2015-07-27T09:11:15.446Z</time>
      </trkpt>
      <trkpt lat="44.81933" lon="1.71158">
        <ele>453.353973389</ele>
        <time>2015-07-27T09:11:16.431Z</time>
      </trkpt>
      <trkpt lat="44.81925" lon="1.71155">
        <ele>452.481781006</ele>
        <time>2015-07-27T09:11:22.43Z</time>
      </trkpt>
      <trkpt lat="44.81924" lon="1.71155">
        <ele>452.394714355</ele>
        <time>2015-07-27T09:11:23.445Z</time>
      </trkpt>
      <trkpt lat="44.81916" lon="1.71155">
        <ele>451.695587158</ele>
        <time>2015-07-27T09:11:29.451Z</time>
      </trkpt>
      <trkpt lat="44.81915" lon="1.71155">
        <ele>451.528686523</ele>
        <time>2015-07-27T09:11:30.451Z</time>
      </trkpt>
      <trkpt lat="44.81906" lon="1.71153">
        <ele>450.943267822</ele>
        <time>2015-07-27T09:11:39.419Z</time>
      </trkpt>
      <trkpt lat="44.81905" lon="1.71152">
        <ele>450.897064209</ele>
        <time>2015-07-27T09:11:40.408Z</time>
      </trkpt>
      <trkpt lat="44.81896" lon="1.7115">
        <ele>450.562316895</ele>
        <time>2015-07-27T09:11:48.416Z</time>
      </trkpt>
      <trkpt lat="44.81895" lon="1.7115">
        <ele>450.481445312</ele>
        <time>2015-07-27T09:11:49.407Z</time>
      </trkpt>
      <trkpt lat="44.81887" lon="1.71149">
        <ele>449.954345703</ele>
        <time>2015-07-27T09:11:57.405Z</time>
      </trkpt>
      <trkpt lat="44.81886" lon="1.71149">
        <ele>449.918640137</ele>
        <time>2015-07-27T09:11:58.405Z</time>
      </trkpt>
      <trkpt lat="44.81878" lon="1.71146">
        <ele>449.866607666</ele>
        <time>2015-07-27T09:12:05.412Z</time>
      </trkpt>
      <trkpt lat="44.81876" lon="1.71145">
        <ele>449.774108887</ele>
        <time>2015-07-27T09:12:06.413Z</time>
      </trkpt>
      <trkpt lat="44.81868" lon="1.71141">
        <ele>449.074035645</ele>
        <time>2015-07-27T09:12:12.421Z</time>
      </trkpt>
      <trkpt lat="44.81867" lon="1.7114">
        <ele>449.009857178</ele>
        <time>2015-07-27T09:12:13.418Z</time>
      </trkpt>
      <trkpt lat="44.8186" lon="1.71134">
        <ele>448.657806396</ele>
        <time>2015-07-27T09:12:21.414Z</time>
      </trkpt>
      <trkpt lat="44.81859" lon="1.71134">
        <ele>448.622650146</ele>
        <time>2015-07-27T09:12:22.42Z</time>
      </trkpt>
      <trkpt lat="44.81851" lon="1.7113">
        <ele>447.500091553</ele>
        <time>2015-07-27T09:12:32.415Z</time>
      </trkpt>
      <trkpt lat="44.8185" lon="1.71129">
        <ele>447.499694824</ele>
        <time>2015-07-27T09:12:33.412Z</time>
      </trkpt>
      <trkpt lat="44.81842" lon="1.71126">
        <ele>447.233093262</ele>
        <time>2015-07-27T09:12:39.474Z</time>
      </trkpt>
      <trkpt lat="44.81841" lon="1.71126">
        <ele>447.134033203</ele>
        <time>2015-07-27T09:12:40.413Z</time>
      </trkpt>
      <trkpt lat="44.81833" lon="1.71122">
        <ele>446.480316162</ele>
        <time>2015-07-27T09:12:49.406Z</time>
      </trkpt>
      <trkpt lat="44.81832" lon="1.71121">
        <ele>446.219848633</ele>
        <time>2015-07-27T09:12:50.405Z</time>
      </trkpt>
      <trkpt lat="44.81823" lon="1.71118">
        <ele>444.174285889</ele>
        <time>2015-07-27T09:12:59.422Z</time>
      </trkpt>
      <trkpt lat="44.81822" lon="1.71118">
        <ele>444.031463623</ele>
        <time>2015-07-27T09:13:00.464Z</time>
      </trkpt>
      <trkpt lat="44.81814" lon="1.71116">
        <ele>443.157318115</ele>
        <time>2015-07-27T09:13:11.499Z</time>
      </trkpt>
      <trkpt lat="44.81813" lon="1.71116">
        <ele>443.161010742</ele>
        <time>2015-07-27T09:13:12.427Z</time>
      </trkpt>
      <trkpt lat="44.81806" lon="1.71119">
        <ele>442.851348877</ele>
        <time>2015-07-27T09:13:20.088Z</time>
      </trkpt>
      <trkpt lat="44.81804" lon="1.71119">
        <ele>442.866943359</ele>
        <time>2015-07-27T09:13:20.411Z</time>
      </trkpt>
      <trkpt lat="44.81796" lon="1.71118">
        <ele>442.894439697</ele>
        <time>2015-07-27T09:13:25.198Z</time>
      </trkpt>
      <trkpt lat="44.81795" lon="1.71118">
        <ele>442.952636719</ele>
        <time>2015-07-27T09:13:25.602Z</time>
      </trkpt>
      <trkpt lat="44.81787" lon="1.71115">
        <ele>442.144104004</ele>
        <time>2015-07-27T09:13:47.225Z</time>
      </trkpt>
      <trkpt lat="44.81786" lon="1.71114">
        <ele>442.124969482</ele>
        <time>2015-07-27T09:13:47.564Z</time>
      </trkpt>
      <trkpt lat="44.81777" lon="1.71114">
        <ele>441.706298828</ele>
        <time>2015-07-27T09:13:53.376Z</time>
      </trkpt>
      <trkpt lat="44.81776" lon="1.71114">
        <ele>441.667236328</ele>
        <time>2015-07-27T09:13:54.468Z</time>
      </trkpt>
      <trkpt lat="44.81769" lon="1.71121">
        <ele>441.011932373</ele>
        <time>2015-07-27T09:14:02.723Z</time>
      </trkpt>
      <trkpt lat="44.81769" lon="1.71123">
        <ele>440.84286499</ele>
        <time>2015-07-27T09:14:03.463Z</time>
      </trkpt>
      <trkpt lat="44.81766" lon="1.71134">
        <ele>439.882019043</ele>
        <time>2015-07-27T09:14:10.436Z</time>
      </trkpt>
      <trkpt lat="44.81766" lon="1.71135">
        <ele>439.874328613</ele>
        <time>2015-07-27T09:14:11.45Z</time>
      </trkpt>
      <trkpt lat="44.81761" lon="1.71146">
        <ele>438.879821777</ele>
        <time>2015-07-27T09:14:18.412Z</time>
      </trkpt>
      <trkpt lat="44.8176" lon="1.71147">
        <ele>438.72833252</ele>
        <time>2015-07-27T09:14:19.426Z</time>
      </trkpt>
      <trkpt lat="44.81754" lon="1.71155">
        <ele>436.944763184</ele>
        <time>2015-07-27T09:14:45.426Z</time>
      </trkpt>
      <trkpt lat="44.81752" lon="1.71156">
        <ele>436.893768311</ele>
        <time>2015-07-27T09:14:46.431Z</time>
      </trkpt>
      <trkpt lat="44.81745" lon="1.71157">
        <ele>436.271728516</ele>
        <time>2015-07-27T09:14:52.741Z</time>
      </trkpt>
      <trkpt lat="44.81743" lon="1.71157">
        <ele>436.228271484</ele>
        <time>2015-07-27T09:14:53.436Z</time>
      </trkpt>
      <trkpt lat="44.81735" lon="1.71158">
        <ele>436.214447021</ele>
        <time>2015-07-27T09:15:00.517Z</time>
      </trkpt>
      <trkpt lat="44.81734" lon="1.71158">
        <ele>436.182434082</ele>
        <time>2015-07-27T09:15:01.469Z</time>
      </trkpt>
      <trkpt lat="44.81726" lon="1.71154">
        <ele>436.218048096</ele>
        <time>2015-07-27T09:15:08.436Z</time>
      </trkpt>
      <trkpt lat="44.81724" lon="1.71154">
        <ele>436.219543457</ele>
        <time>2015-07-27T09:15:09.424Z</time>
      </trkpt>
      <trkpt lat="44.81716" lon="1.71152">
        <ele>436.127746582</ele>
        <time>2015-07-27T09:15:15.445Z</time>
      </trkpt>
      <trkpt lat="44.81715" lon="1.71152">
        <ele>436.151031494</ele>
        <time>2015-07-27T09:15:16.378Z</time>
      </trkpt>
      <trkpt lat="44.81706" lon="1.71148">
        <ele>436.594390869</ele>
        <time>2015-07-27T09:15:27.436Z</time>
      </trkpt>
      <trkpt lat="44.81706" lon="1.71147">
        <ele>436.624053955</ele>
        <time>2015-07-27T09:15:28.481Z</time>
      </trkpt>
      <trkpt lat="44.81697" lon="1.71144">
        <ele>436.790802002</ele>
        <time>2015-07-27T09:15:40.429Z</time>
      </trkpt>
      <trkpt lat="44.81697" lon="1.71144">
        <ele>436.769622803</ele>
        <time>2015-07-27T09:15:41.415Z</time>
      </trkpt>
      <trkpt lat="44.81689" lon="1.7114">
        <ele>436.26852417</ele>
        <time>2015-07-27T09:15:47.983Z</time>
      </trkpt>
      <trkpt lat="44.81687" lon="1.71138">
        <ele>436.238098145</ele>
        <time>2015-07-27T09:15:48.377Z</time>
      </trkpt>
      <trkpt lat="44.8168" lon="1.71135">
        <ele>436.064971924</ele>
        <time>2015-07-27T09:15:55.401Z</time>
      </trkpt>
      <trkpt lat="44.81678" lon="1.71135">
        <ele>436.032165527</ele>
        <time>2015-07-27T09:15:56.42Z</time>
      </trkpt>
      <trkpt lat="44.8167" lon="1.71129">
        <ele>435.536254883</ele>
        <time>2015-07-27T09:16:06.433Z</time>
      </trkpt>
      <trkpt lat="44.8167" lon="1.71128">
        <ele>435.48526001</ele>
        <time>2015-07-27T09:16:07.466Z</time>
      </trkpt>
      <trkpt lat="44.81663" lon="1.71123">
        <ele>434.884521484</ele>
        <time>2015-07-27T09:16:14.632Z</time>
      </trkpt>
      <trkpt lat="44.81662" lon="1.71122">
        <ele>434.833618164</ele>
        <time>2015-07-27T09:16:15.543Z</time>
      </trkpt>
      <trkpt lat="44.81654" lon="1.71117">
        <ele>434.315948486</ele>
        <time>2015-07-27T09:16:30.449Z</time>
      </trkpt>
      <trkpt lat="44.81654" lon="1.71116">
        <ele>434.21105957</ele>
        <time>2015-07-27T09:16:31.466Z</time>
      </trkpt>
      <trkpt lat="44.81646" lon="1.71109">
        <ele>423.425048828</ele>
        <time>2015-07-27T09:18:30.441Z</time>
      </trkpt>
      <trkpt lat="44.81646" lon="1.71109">
        <ele>423.28994751</ele>
        <time>2015-07-27T09:18:31.426Z</time>
      </trkpt>
      <trkpt lat="44.8164" lon="1.71117">
        <ele>422.646453857</ele>
        <time>2015-07-27T09:18:48.471Z</time>
      </trkpt>
      <trkpt lat="44.81639" lon="1.71118">
        <ele>422.555267334</ele>
        <time>2015-07-27T09:18:49.367Z</time>
      </trkpt>
      <trkpt lat="44.81632" lon="1.71125">
        <ele>421.239227295</ele>
        <time>2015-07-27T09:19:00.539Z</time>
      </trkpt>
      <trkpt lat="44.8163" lon="1.71125">
        <ele>421.193725586</ele>
        <time>2015-07-27T09:19:01.43Z</time>
      </trkpt>
      <trkpt lat="44.81624" lon="1.71116">
        <ele>420.313659668</ele>
        <time>2015-07-27T09:19:10.441Z</time>
      </trkpt>
      <trkpt lat="44.81622" lon="1.71116">
        <ele>420.335235596</ele>
        <time>2015-07-27T09:19:11.437Z</time>
      </trkpt>
      <trkpt lat="44.81618" lon="1.71105">
        <ele>420.163116455</ele>
        <time>2015-07-27T09:19:21.413Z</time>
      </trkpt>
      <trkpt lat="44.81617" lon="1.71103">
        <ele>420.100189209</ele>
        <time>2015-07-27T09:19:22.43Z</time>
      </trkpt>
      <trkpt lat="44.81615" lon="1.71092">
        <ele>418.762573242</ele>
        <time>2015-07-27T09:19:42.462Z</time>
      </trkpt>
      <trkpt lat="44.81615" lon="1.71091">
        <ele>418.741821289</ele>
        <time>2015-07-27T09:19:43.438Z</time>
      </trkpt>
      <trkpt lat="44.81611" lon="1.71081">
        <ele>418.147460938</ele>
        <time>2015-07-27T09:19:56.448Z</time>
      </trkpt>
      <trkpt lat="44.81609" lon="1.7108">
        <ele>418.108551025</ele>
        <time>2015-07-27T09:19:57.438Z</time>
      </trkpt>
      <trkpt lat="44.81607" lon="1.71068">
        <ele>413.898132324</ele>
        <time>2015-07-27T09:21:45.824Z</time>
      </trkpt>
      <trkpt lat="44.81607" lon="1.71068">
        <ele>413.998260498</ele>
        <time>2015-07-27T09:21:46.817Z</time>
      </trkpt>
      <trkpt lat="44.816" lon="1.7106">
        <ele>416.189727783</ele>
        <time>2015-07-27T09:22:03.786Z</time>
      </trkpt>
      <trkpt lat="44.81599" lon="1.71059">
        <ele>416.135803223</ele>
        <time>2015-07-27T09:22:04.833Z</time>
      </trkpt>
      <trkpt lat="44.81594" lon="1.7105">
        <ele>414.558563232</ele>
        <time>2015-07-27T09:22:18.5Z</time>
      </trkpt>
      <trkpt lat="44.81593" lon="1.71049">
        <ele>414.518005371</ele>
        <time>2015-07-27T09:22:18.82Z</time>
      </trkpt>
      <trkpt lat="44.81588" lon="1.71039">
        <ele>415.172515869</ele>
        <time>2015-07-27T09:22:34.825Z</time>
      </trkpt>
      <trkpt lat="44.81587" lon="1.71038">
        <ele>415.336181641</ele>
        <time>2015-07-27T09:22:35.833Z</time>
      </trkpt>
      <trkpt lat="44.81581" lon="1.71029">
        <ele>415.285766602</ele>
        <time>2015-07-27T09:22:46.836Z</time>
      </trkpt>
      <trkpt lat="44.8158" lon="1.71028">
        <ele>415.155914307</ele>
        <time>2015-07-27T09:22:47.831Z</time>
      </trkpt>
      <trkpt lat="44.81577" lon="1.71016">
        <ele>414.187042236</ele>
        <time>2015-07-27T09:22:54.175Z</time>
      </trkpt>
      <trkpt lat="44.81577" lon="1.71013">
        <ele>413.99887085</ele>
        <time>2015-07-27T09:22:54.843Z</time>
      </trkpt>
      <trkpt lat="44.81576" lon="1.71002">
        <ele>413.087371826</ele>
        <time>2015-07-27T09:23:00.835Z</time>
      </trkpt>
      <trkpt lat="44.81576" lon="1.71">
        <ele>412.929168701</ele>
        <time>2015-07-27T09:23:01.836Z</time>
      </trkpt>
      <trkpt lat="44.81577" lon="1.70988">
        <ele>411.537872314</ele>
        <time>2015-07-27T09:23:09.37Z</time>
      </trkpt>
      <trkpt lat="44.81578" lon="1.70987">
        <ele>411.3331604</ele>
        <time>2015-07-27T09:23:09.828Z</time>
      </trkpt>
      <trkpt lat="44.81584" lon="1.70978">
        <ele>410.159088135</ele>
        <time>2015-07-27T09:23:15.831Z</time>
      </trkpt>
      <trkpt lat="44.81584" lon="1.70976">
        <ele>410.016235352</ele>
        <time>2015-07-27T09:23:16.83Z</time>
      </trkpt>
      <trkpt lat="44.81588" lon="1.70965">
        <ele>409.078674316</ele>
        <time>2015-07-27T09:23:23.833Z</time>
      </trkpt>
      <trkpt lat="44.81588" lon="1.70964">
        <ele>409.063598633</ele>
        <time>2015-07-27T09:23:24.819Z</time>
      </trkpt>
      <trkpt lat="44.8159" lon="1.70952">
        <ele>408.245910645</ele>
        <time>2015-07-27T09:23:31.827Z</time>
      </trkpt>
      <trkpt lat="44.8159" lon="1.70951">
        <ele>407.994049072</ele>
        <time>2015-07-27T09:23:32.866Z</time>
      </trkpt>
      <trkpt lat="44.81595" lon="1.70942">
        <ele>406.329315186</ele>
        <time>2015-07-27T09:23:39.867Z</time>
      </trkpt>
      <trkpt lat="44.81596" lon="1.70941">
        <ele>406.127655029</ele>
        <time>2015-07-27T09:23:40.867Z</time>
      </trkpt>
      <trkpt lat="44.81604" lon="1.70936">
        <ele>405.167663574</ele>
        <time>2015-07-27T09:23:48.824Z</time>
      </trkpt>
      <trkpt lat="44.81605" lon="1.70935">
        <ele>405.152587891</ele>
        <time>2015-07-27T09:23:49.823Z</time>
      </trkpt>
      <trkpt lat="44.81611" lon="1.70926">
        <ele>404.932373047</ele>
        <time>2015-07-27T09:23:55.779Z</time>
      </trkpt>
      <trkpt lat="44.81612" lon="1.70925">
        <ele>404.814727783</ele>
        <time>2015-07-27T09:23:56.824Z</time>
      </trkpt>
      <trkpt lat="44.81618" lon="1.70918">
        <ele>403.454223633</ele>
        <time>2015-07-27T09:24:03.921Z</time>
      </trkpt>
      <trkpt lat="44.81619" lon="1.70917">
        <ele>403.361724854</ele>
        <time>2015-07-27T09:24:04.826Z</time>
      </trkpt>
      <trkpt lat="44.81626" lon="1.7091">
        <ele>405.320343018</ele>
        <time>2015-07-27T09:24:14.41Z</time>
      </trkpt>
      <trkpt lat="44.81627" lon="1.7091">
        <ele>405.610656738</ele>
        <time>2015-07-27T09:24:14.827Z</time>
      </trkpt>
      <trkpt lat="44.81634" lon="1.70902">
        <ele>406.37902832</ele>
        <time>2015-07-27T09:24:29.599Z</time>
      </trkpt>
      <trkpt lat="44.81634" lon="1.70901">
        <ele>406.241455078</ele>
        <time>2015-07-27T09:24:29.879Z</time>
      </trkpt>
      <trkpt lat="44.81634" lon="1.70889">
        <ele>403.720214844</ele>
        <time>2015-07-27T09:24:43.84Z</time>
      </trkpt>
      <trkpt lat="44.81634" lon="1.70888">
        <ele>403.706878662</ele>
        <time>2015-07-27T09:24:44.896Z</time>
      </trkpt>
      <trkpt lat="44.81632" lon="1.70876">
        <ele>404.202301025</ele>
        <time>2015-07-27T09:24:56.831Z</time>
      </trkpt>
      <trkpt lat="44.81631" lon="1.70875">
        <ele>404.218170166</ele>
        <time>2015-07-27T09:24:57.844Z</time>
      </trkpt>
      <trkpt lat="44.81626" lon="1.70865">
        <ele>402.224761963</ele>
        <time>2015-07-27T09:25:33.478Z</time>
      </trkpt>
      <trkpt lat="44.81625" lon="1.70865">
        <ele>402.088195801</ele>
        <time>2015-07-27T09:25:33.823Z</time>
      </trkpt>
      <trkpt lat="44.81618" lon="1.70867">
        <ele>404.255645752</ele>
        <time>2015-07-27T09:25:48.861Z</time>
      </trkpt>
      <trkpt lat="44.81616" lon="1.70868">
        <ele>404.570587158</ele>
        <time>2015-07-27T09:25:49.867Z</time>
      </trkpt>
      <trkpt lat="44.81609" lon="1.70872">
        <ele>406.209686279</ele>
        <time>2015-07-27T09:25:54.899Z</time>
      </trkpt>
      <trkpt lat="44.81607" lon="1.70873">
        <ele>406.527008057</ele>
        <time>2015-07-27T09:25:55.844Z</time>
      </trkpt>
      <trkpt lat="44.816" lon="1.70878">
        <ele>407.790863037</ele>
        <time>2015-07-27T09:26:00.828Z</time>
      </trkpt>
      <trkpt lat="44.81599" lon="1.70879">
        <ele>407.975250244</ele>
        <time>2015-07-27T09:26:01.821Z</time>
      </trkpt>
      <trkpt lat="44.8159" lon="1.70883">
        <ele>408.994354248</ele>
        <time>2015-07-27T09:26:09.82Z</time>
      </trkpt>
      <trkpt lat="44.81589" lon="1.70884">
        <ele>409.103973389</ele>
        <time>2015-07-27T09:26:10.83Z</time>
      </trkpt>
      <trkpt lat="44.8158" lon="1.70885">
        <ele>409.262207031</ele>
        <time>2015-07-27T09:26:29.15Z</time>
      </trkpt>
      <trkpt lat="44.8158" lon="1.70886">
        <ele>409.183807373</ele>
        <time>2015-07-27T09:26:29.818Z</time>
      </trkpt>
      <trkpt lat="44.81572" lon="1.7089">
        <ele>407.917999268</ele>
        <time>2015-07-27T09:26:42.44Z</time>
      </trkpt>
      <trkpt lat="44.81571" lon="1.70891">
        <ele>407.695556641</ele>
        <time>2015-07-27T09:26:42.826Z</time>
      </trkpt>
      <trkpt lat="44.81563" lon="1.70891">
        <ele>405.950134277</ele>
        <time>2015-07-27T09:26:49.822Z</time>
      </trkpt>
      <trkpt lat="44.81562" lon="1.70891">
        <ele>405.693847656</ele>
        <time>2015-07-27T09:26:50.818Z</time>
      </trkpt>
      <trkpt lat="44.81554" lon="1.70892">
        <ele>405.31060791</ele>
        <time>2015-07-27T09:26:57.588Z</time>
      </trkpt>
      <trkpt lat="44.81552" lon="1.70892">
        <ele>405.286590576</ele>
        <time>2015-07-27T09:26:57.856Z</time>
      </trkpt>
      <trkpt lat="44.81544" lon="1.70893">
        <ele>405.496429443</ele>
        <time>2015-07-27T09:27:03.818Z</time>
      </trkpt>
      <trkpt lat="44.81543" lon="1.70893">
        <ele>405.524078369</ele>
        <time>2015-07-27T09:27:04.83Z</time>
      </trkpt>
      <trkpt lat="44.81535" lon="1.70897">
        <ele>405.197814941</ele>
        <time>2015-07-27T09:27:13.391Z</time>
      </trkpt>
      <trkpt lat="44.81534" lon="1.70898">
        <ele>405.218994141</ele>
        <time>2015-07-27T09:27:13.775Z</time>
      </trkpt>
      <trkpt lat="44.81527" lon="1.70905">
        <ele>406.328125</ele>
        <time>2015-07-27T09:27:23.522Z</time>
      </trkpt>
      <trkpt lat="44.81525" lon="1.70905">
        <ele>406.504638672</ele>
        <time>2015-07-27T09:27:23.829Z</time>
      </trkpt>
      <trkpt lat="44.81518" lon="1.70911">
        <ele>407.242156982</ele>
        <time>2015-07-27T09:27:29.786Z</time>
      </trkpt>
      <trkpt lat="44.81517" lon="1.70912">
        <ele>407.40335083</ele>
        <time>2015-07-27T09:27:30.829Z</time>
      </trkpt>
      <trkpt lat="44.8151" lon="1.70917">
        <ele>408.088012695</ele>
        <time>2015-07-27T09:27:37.375Z</time>
      </trkpt>
      <trkpt lat="44.81509" lon="1.70918">
        <ele>408.15234375</ele>
        <time>2015-07-27T09:27:37.821Z</time>
      </trkpt>
      <trkpt lat="44.815" lon="1.70918">
        <ele>408.864562988</ele>
        <time>2015-07-27T09:27:42.782Z</time>
      </trkpt>
      <trkpt lat="44.81498" lon="1.70918">
        <ele>408.955108643</ele>
        <time>2015-07-27T09:27:43.833Z</time>
      </trkpt>
      <trkpt lat="44.81489" lon="1.70918">
        <ele>409.625915527</ele>
        <time>2015-07-27T09:27:49.832Z</time>
      </trkpt>
      <trkpt lat="44.81488" lon="1.70918">
        <ele>409.691558838</ele>
        <time>2015-07-27T09:27:50.82Z</time>
      </trkpt>
      <trkpt lat="44.8148" lon="1.7092">
        <ele>410.277954102</ele>
        <time>2015-07-27T09:27:55.829Z</time>
      </trkpt>
      <trkpt lat="44.81479" lon="1.7092">
        <ele>410.36618042</ele>
        <time>2015-07-27T09:27:56.826Z</time>
      </trkpt>
      <trkpt lat="44.8147" lon="1.70919">
        <ele>410.835968018</ele>
        <time>2015-07-27T09:28:03.831Z</time>
      </trkpt>
      <trkpt lat="44.81469" lon="1.7092">
        <ele>410.902160645</ele>
        <time>2015-07-27T09:28:04.822Z</time>
      </trkpt>
      <trkpt lat="44.81461" lon="1.70918">
        <ele>411.141571045</ele>
        <time>2015-07-27T09:28:13.37Z</time>
      </trkpt>
      <trkpt lat="44.81459" lon="1.70918">
        <ele>411.108917236</ele>
        <time>2015-07-27T09:28:13.816Z</time>
      </trkpt>
      <trkpt lat="44.81452" lon="1.70918">
        <ele>411.196716309</ele>
        <time>2015-07-27T09:28:19.812Z</time>
      </trkpt>
      <trkpt lat="44.8145" lon="1.70917">
        <ele>411.252288818</ele>
        <time>2015-07-27T09:28:20.813Z</time>
      </trkpt>
      <trkpt lat="44.81442" lon="1.70918">
        <ele>410.971435547</ele>
        <time>2015-07-27T09:28:26.819Z</time>
      </trkpt>
      <trkpt lat="44.8144" lon="1.70917">
        <ele>410.78137207</ele>
        <time>2015-07-27T09:28:27.815Z</time>
      </trkpt>
      <trkpt lat="44.81432" lon="1.70914">
        <ele>409.838104248</ele>
        <time>2015-07-27T09:28:37.818Z</time>
      </trkpt>
      <trkpt lat="44.81431" lon="1.70914">
        <ele>409.684631348</ele>
        <time>2015-07-27T09:28:38.816Z</time>
      </trkpt>
      <trkpt lat="44.81423" lon="1.70917">
        <ele>409.057006836</ele>
        <time>2015-07-27T09:28:46.804Z</time>
      </trkpt>
      <trkpt lat="44.81422" lon="1.70917">
        <ele>408.971221924</ele>
        <time>2015-07-27T09:28:47.805Z</time>
      </trkpt>
      <trkpt lat="44.81414" lon="1.70918">
        <ele>409.187744141</ele>
        <time>2015-07-27T09:28:56.843Z</time>
      </trkpt>
      <trkpt lat="44.81413" lon="1.70918">
        <ele>409.233886719</ele>
        <time>2015-07-27T09:28:57.818Z</time>
      </trkpt>
      <trkpt lat="44.81404" lon="1.70917">
        <ele>409.239837646</ele>
        <time>2015-07-27T09:29:07.809Z</time>
      </trkpt>
      <trkpt lat="44.81403" lon="1.70917">
        <ele>409.213165283</ele>
        <time>2015-07-27T09:29:08.818Z</time>
      </trkpt>
      <trkpt lat="44.81395" lon="1.7092">
        <ele>409.485961914</ele>
        <time>2015-07-27T09:29:14.822Z</time>
      </trkpt>
      <trkpt lat="44.81393" lon="1.70921">
        <ele>409.51776123</ele>
        <time>2015-07-27T09:29:15.819Z</time>
      </trkpt>
      <trkpt lat="44.81385" lon="1.70921">
        <ele>410.119476318</ele>
        <time>2015-07-27T09:29:22.817Z</time>
      </trkpt>
      <trkpt lat="44.81384" lon="1.70921">
        <ele>410.299957275</ele>
        <time>2015-07-27T09:29:23.82Z</time>
      </trkpt>
      <trkpt lat="44.81377" lon="1.70922">
        <ele>411.149353027</ele>
        <time>2015-07-27T09:29:30.088Z</time>
      </trkpt>
      <trkpt lat="44.81375" lon="1.70922">
        <ele>411.26776123</ele>
        <time>2015-07-27T09:29:30.813Z</time>
      </trkpt>
      <trkpt lat="44.81366" lon="1.70923">
        <ele>411.638000488</ele>
        <time>2015-07-27T09:29:38.823Z</time>
      </trkpt>
      <trkpt lat="44.81365" lon="1.70922">
        <ele>411.759277344</ele>
        <time>2015-07-27T09:29:39.819Z</time>
      </trkpt>
      <trkpt lat="44.81358" lon="1.70918">
        <ele>411.933410645</ele>
        <time>2015-07-27T09:29:47.478Z</time>
      </trkpt>
      <trkpt lat="44.81356" lon="1.70918">
        <ele>411.931640625</ele>
        <time>2015-07-27T09:29:47.817Z</time>
      </trkpt>
      <trkpt lat="44.81348" lon="1.70918">
        <ele>411.553192139</ele>
        <time>2015-07-27T09:29:53.817Z</time>
      </trkpt>
      <trkpt lat="44.81346" lon="1.70919">
        <ele>411.492431641</ele>
        <time>2015-07-27T09:29:54.866Z</time>
      </trkpt>
      <trkpt lat="44.81338" lon="1.70919">
        <ele>411.3565979</ele>
        <time>2015-07-27T09:29:59.824Z</time>
      </trkpt>
      <trkpt lat="44.81337" lon="1.70919">
        <ele>411.3203125</ele>
        <time>2015-07-27T09:30:00.825Z</time>
      </trkpt>
      <trkpt lat="44.81329" lon="1.70922">
        <ele>410.834106445</ele>
        <time>2015-07-27T09:30:07.896Z</time>
      </trkpt>
      <trkpt lat="44.81328" lon="1.70922">
        <ele>410.758972168</ele>
        <time>2015-07-27T09:30:08.775Z</time>
      </trkpt>
      <trkpt lat="44.81319" lon="1.70924">
        <ele>410.446716309</ele>
        <time>2015-07-27T09:30:16.817Z</time>
      </trkpt>
      <trkpt lat="44.81318" lon="1.70925">
        <ele>410.456542969</ele>
        <time>2015-07-27T09:30:17.812Z</time>
      </trkpt>
      <trkpt lat="44.81309" lon="1.70928">
        <ele>410.952087402</ele>
        <time>2015-07-27T09:30:25.844Z</time>
      </trkpt>
      <trkpt lat="44.81308" lon="1.70929">
        <ele>410.907287598</ele>
        <time>2015-07-27T09:30:26.822Z</time>
      </trkpt>
      <trkpt lat="44.81299" lon="1.70931">
        <ele>411.189819336</ele>
        <time>2015-07-27T09:30:34.837Z</time>
      </trkpt>
      <trkpt lat="44.81298" lon="1.70931">
        <ele>411.185119629</ele>
        <time>2015-07-27T09:30:35.829Z</time>
      </trkpt>
      <trkpt lat="44.8129" lon="1.70934">
        <ele>410.712982178</ele>
        <time>2015-07-27T09:30:43.824Z</time>
      </trkpt>
      <trkpt lat="44.81289" lon="1.70934">
        <ele>410.639526367</ele>
        <time>2015-07-27T09:30:44.827Z</time>
      </trkpt>
      <trkpt lat="44.81281" lon="1.70936">
        <ele>410.708679199</ele>
        <time>2015-07-27T09:30:51.843Z</time>
      </trkpt>
      <trkpt lat="44.81279" lon="1.70936">
        <ele>410.663970947</ele>
        <time>2015-07-27T09:30:53.009Z</time>
      </trkpt>
      <trkpt lat="44.81271" lon="1.70937">
        <ele>410.852935791</ele>
        <time>2015-07-27T09:31:01.838Z</time>
      </trkpt>
      <trkpt lat="44.8127" lon="1.70937">
        <ele>410.818450928</ele>
        <time>2015-07-27T09:31:02.923Z</time>
      </trkpt>
      <trkpt lat="44.81261" lon="1.70938">
        <ele>410.661193848</ele>
        <time>2015-07-27T09:31:08.931Z</time>
      </trkpt>
      <trkpt lat="44.81261" lon="1.70938">
        <ele>410.622741699</ele>
        <time>2015-07-27T09:31:09.905Z</time>
      </trkpt>
      <trkpt lat="44.81252" lon="1.7094">
        <ele>410.060974121</ele>
        <time>2015-07-27T09:31:14.866Z</time>
      </trkpt>
      <trkpt lat="44.81251" lon="1.7094">
        <ele>409.86529541</ele>
        <time>2015-07-27T09:31:15.847Z</time>
      </trkpt>
      <trkpt lat="44.81243" lon="1.70938">
        <ele>408.507965088</ele>
        <time>2015-07-27T09:31:23.984Z</time>
      </trkpt>
      <trkpt lat="44.81242" lon="1.70938">
        <ele>408.446350098</ele>
        <time>2015-07-27T09:31:24.796Z</time>
      </trkpt>
      <trkpt lat="44.81234" lon="1.70937">
        <ele>407.812408447</ele>
        <time>2015-07-27T09:31:30.845Z</time>
      </trkpt>
      <trkpt lat="44.81233" lon="1.70936">
        <ele>407.769104004</ele>
        <time>2015-07-27T09:31:31.878Z</time>
      </trkpt>
      <trkpt lat="44.81225" lon="1.70937">
        <ele>407.53427124</ele>
        <time>2015-07-27T09:31:37.75Z</time>
      </trkpt>
      <trkpt lat="44.81224" lon="1.70937">
        <ele>407.566040039</ele>
        <time>2015-07-27T09:31:38.847Z</time>
      </trkpt>
      <trkpt lat="44.81215" lon="1.70936">
        <ele>407.053039551</ele>
        <time>2015-07-27T09:31:46.887Z</time>
      </trkpt>
      <trkpt lat="44.81215" lon="1.70935">
        <ele>406.987365723</ele>
        <time>2015-07-27T09:31:47.862Z</time>
      </trkpt>
      <trkpt lat="44.81206" lon="1.70934">
        <ele>406.452423096</ele>
        <time>2015-07-27T09:31:55.829Z</time>
      </trkpt>
      <trkpt lat="44.81204" lon="1.70934">
        <ele>406.331512451</ele>
        <time>2015-07-27T09:31:57.219Z</time>
      </trkpt>
      <trkpt lat="44.81196" lon="1.70935">
        <ele>405.593048096</ele>
        <time>2015-07-27T09:32:03.91Z</time>
      </trkpt>
      <trkpt lat="44.81195" lon="1.70936">
        <ele>405.447570801</ele>
        <time>2015-07-27T09:32:04.851Z</time>
      </trkpt>
      <trkpt lat="44.81186" lon="1.70935">
        <ele>404.609161377</ele>
        <time>2015-07-27T09:32:12.527Z</time>
      </trkpt>
      <trkpt lat="44.81185" lon="1.70934">
        <ele>404.514373779</ele>
        <time>2015-07-27T09:32:13.572Z</time>
      </trkpt>
      <trkpt lat="44.81177" lon="1.70928">
        <ele>402.456390381</ele>
        <time>2015-07-27T09:32:23.623Z</time>
      </trkpt>
      <trkpt lat="44.81175" lon="1.70928">
        <ele>402.179290771</ele>
        <time>2015-07-27T09:32:24.641Z</time>
      </trkpt>
      <trkpt lat="44.81167" lon="1.70927">
        <ele>400.360443115</ele>
        <time>2015-07-27T09:32:35.598Z</time>
      </trkpt>
      <trkpt lat="44.81165" lon="1.70927">
        <ele>400.2315979</ele>
        <time>2015-07-27T09:32:36.594Z</time>
      </trkpt>
      <trkpt lat="44.81156" lon="1.70925">
        <ele>399.570922852</ele>
        <time>2015-07-27T09:32:42.623Z</time>
      </trkpt>
      <trkpt lat="44.81155" lon="1.70925">
        <ele>399.484313965</ele>
        <time>2015-07-27T09:32:43.615Z</time>
      </trkpt>
      <trkpt lat="44.81147" lon="1.70924">
        <ele>397.320922852</ele>
        <time>2015-07-27T09:32:54.673Z</time>
      </trkpt>
      <trkpt lat="44.81145" lon="1.70925">
        <ele>397.246673584</ele>
        <time>2015-07-27T09:32:55.614Z</time>
      </trkpt>
      <trkpt lat="44.81136" lon="1.70923">
        <ele>397.508178711</ele>
        <time>2015-07-27T09:33:01.618Z</time>
      </trkpt>
      <trkpt lat="44.81134" lon="1.70922">
        <ele>397.561157227</ele>
        <time>2015-07-27T09:33:02.645Z</time>
      </trkpt>
      <trkpt lat="44.81126" lon="1.70921">
        <ele>397.572998047</ele>
        <time>2015-07-27T09:33:10.622Z</time>
      </trkpt>
      <trkpt lat="44.81125" lon="1.70921">
        <ele>397.515380859</ele>
        <time>2015-07-27T09:33:11.624Z</time>
      </trkpt>
      <trkpt lat="44.81118" lon="1.70918">
        <ele>396.813415527</ele>
        <time>2015-07-27T09:33:19.598Z</time>
      </trkpt>
      <trkpt lat="44.81116" lon="1.70917">
        <ele>396.762054443</ele>
        <time>2015-07-27T09:33:21.105Z</time>
      </trkpt>
      <trkpt lat="44.8111" lon="1.70912">
        <ele>396.326934814</ele>
        <time>2015-07-27T09:33:25.613Z</time>
      </trkpt>
      <trkpt lat="44.81108" lon="1.70911">
        <ele>396.273498535</ele>
        <time>2015-07-27T09:33:26.596Z</time>
      </trkpt>
      <trkpt lat="44.811" lon="1.70905">
        <ele>396.300048828</ele>
        <time>2015-07-27T09:33:33.618Z</time>
      </trkpt>
      <trkpt lat="44.811" lon="1.70905">
        <ele>396.26083374</ele>
        <time>2015-07-27T09:33:34.657Z</time>
      </trkpt>
      <trkpt lat="44.81094" lon="1.70896">
        <ele>396.289215088</ele>
        <time>2015-07-27T09:33:41.616Z</time>
      </trkpt>
      <trkpt lat="44.81093" lon="1.70896">
        <ele>396.328186035</ele>
        <time>2015-07-27T09:33:42.65Z</time>
      </trkpt>
      <trkpt lat="44.81086" lon="1.70888">
        <ele>396.808135986</ele>
        <time>2015-07-27T09:33:51.625Z</time>
      </trkpt>
      <trkpt lat="44.81085" lon="1.70886">
        <ele>396.82208252</ele>
        <time>2015-07-27T09:33:52.607Z</time>
      </trkpt>
      <trkpt lat="44.81081" lon="1.70877">
        <ele>396.958099365</ele>
        <time>2015-07-27T09:33:58.636Z</time>
      </trkpt>
      <trkpt lat="44.81081" lon="1.70875">
        <ele>397.070373535</ele>
        <time>2015-07-27T09:33:59.598Z</time>
      </trkpt>
      <trkpt lat="44.8108" lon="1.70864">
        <ele>397.557525635</ele>
        <time>2015-07-27T09:34:04.613Z</time>
      </trkpt>
      <trkpt lat="44.8108" lon="1.70862">
        <ele>397.612915039</ele>
        <time>2015-07-27T09:34:05.636Z</time>
      </trkpt>
      <trkpt lat="44.81078" lon="1.70852">
        <ele>397.951019287</ele>
        <time>2015-07-27T09:34:12.619Z</time>
      </trkpt>
      <trkpt lat="44.81077" lon="1.70849">
        <ele>397.990844727</ele>
        <time>2015-07-27T09:34:13.611Z</time>
      </trkpt>
      <trkpt lat="44.81076" lon="1.70838">
        <ele>398.020080566</ele>
        <time>2015-07-27T09:34:18.608Z</time>
      </trkpt>
      <trkpt lat="44.81076" lon="1.70836">
        <ele>397.988616943</ele>
        <time>2015-07-27T09:34:19.619Z</time>
      </trkpt>
      <trkpt lat="44.81073" lon="1.70826">
        <ele>397.463256836</ele>
        <time>2015-07-27T09:34:27.616Z</time>
      </trkpt>
      <trkpt lat="44.81073" lon="1.70824">
        <ele>397.363464355</ele>
        <time>2015-07-27T09:34:28.616Z</time>
      </trkpt>
      <trkpt lat="44.81072" lon="1.70812">
        <ele>396.782470703</ele>
        <time>2015-07-27T09:34:35.628Z</time>
      </trkpt>
      <trkpt lat="44.81071" lon="1.7081">
        <ele>396.655700684</ele>
        <time>2015-07-27T09:34:36.671Z</time>
      </trkpt>
      <trkpt lat="44.81069" lon="1.70798">
        <ele>394.975585938</ele>
        <time>2015-07-27T09:34:58.618Z</time>
      </trkpt>
      <trkpt lat="44.81069" lon="1.70797">
        <ele>394.93939209</ele>
        <time>2015-07-27T09:34:59.649Z</time>
      </trkpt>
      <trkpt lat="44.81068" lon="1.70787">
        <ele>394.492523193</ele>
        <time>2015-07-27T09:35:06.616Z</time>
      </trkpt>
      <trkpt lat="44.81068" lon="1.70785">
        <ele>394.465576172</ele>
        <time>2015-07-27T09:35:07.616Z</time>
      </trkpt>
      <trkpt lat="44.81066" lon="1.70773">
        <ele>394.246673584</ele>
        <time>2015-07-27T09:35:13.645Z</time>
      </trkpt>
      <trkpt lat="44.81066" lon="1.70772">
        <ele>394.183197021</ele>
        <time>2015-07-27T09:35:14.678Z</time>
      </trkpt>
      <trkpt lat="44.81064" lon="1.7076">
        <ele>393.229858398</ele>
        <time>2015-07-27T09:35:22.605Z</time>
      </trkpt>
      <trkpt lat="44.81064" lon="1.70759">
        <ele>393.028533936</ele>
        <time>2015-07-27T09:35:23.632Z</time>
      </trkpt>
      <trkpt lat="44.8106" lon="1.70748">
        <ele>391.867797852</ele>
        <time>2015-07-27T09:35:30.638Z</time>
      </trkpt>
      <trkpt lat="44.8106" lon="1.70747">
        <ele>391.768768311</ele>
        <time>2015-07-27T09:35:31.625Z</time>
      </trkpt>
      <trkpt lat="44.81056" lon="1.70735">
        <ele>391.069488525</ele>
        <time>2015-07-27T09:35:40.593Z</time>
      </trkpt>
      <trkpt lat="44.81056" lon="1.70734">
        <ele>391.028778076</ele>
        <time>2015-07-27T09:35:41.606Z</time>
      </trkpt>
      <trkpt lat="44.81051" lon="1.70724">
        <ele>389.626342773</ele>
        <time>2015-07-27T09:35:50.593Z</time>
      </trkpt>
      <trkpt lat="44.8105" lon="1.70723">
        <ele>389.468933105</ele>
        <time>2015-07-27T09:35:51.612Z</time>
      </trkpt>
      <trkpt lat="44.81046" lon="1.70712">
        <ele>388.286682129</ele>
        <time>2015-07-27T09:36:02.601Z</time>
      </trkpt>
      <trkpt lat="44.81046" lon="1.70712">
        <ele>388.283691406</ele>
        <time>2015-07-27T09:36:03.564Z</time>
      </trkpt>
      <trkpt lat="44.81041" lon="1.70702">
        <ele>385.622131348</ele>
        <time>2015-07-27T09:37:09.616Z</time>
      </trkpt>
      <trkpt lat="44.8104" lon="1.70702">
        <ele>385.651672363</ele>
        <time>2015-07-27T09:37:10.612Z</time>
      </trkpt>
      <trkpt lat="44.81032" lon="1.70695">
        <ele>385.498474121</ele>
        <time>2015-07-27T09:37:21.615Z</time>
      </trkpt>
      <trkpt lat="44.81032" lon="1.70695">
        <ele>385.437927246</ele>
        <time>2015-07-27T09:37:22.639Z</time>
      </trkpt>
      <trkpt lat="44.81024" lon="1.7069">
        <ele>384.785308838</ele>
        <time>2015-07-27T09:37:34.619Z</time>
      </trkpt>
      <trkpt lat="44.81023" lon="1.70689">
        <ele>384.832366943</ele>
        <time>2015-07-27T09:37:35.649Z</time>
      </trkpt>
      <trkpt lat="44.81014" lon="1.70686">
        <ele>384.504821777</ele>
        <time>2015-07-27T09:37:44.6Z</time>
      </trkpt>
      <trkpt lat="44.81013" lon="1.70685">
        <ele>384.486480713</ele>
        <time>2015-07-27T09:37:45.625Z</time>
      </trkpt>
      <trkpt lat="44.81005" lon="1.70682">
        <ele>383.505767822</ele>
        <time>2015-07-27T09:37:55.7Z</time>
      </trkpt>
      <trkpt lat="44.81004" lon="1.70682">
        <ele>383.424163818</ele>
        <time>2015-07-27T09:37:56.6Z</time>
      </trkpt>
      <trkpt lat="44.80995" lon="1.70679">
        <ele>383.03527832</ele>
        <time>2015-07-27T09:38:06.592Z</time>
      </trkpt>
      <trkpt lat="44.80994" lon="1.70679">
        <ele>382.981842041</ele>
        <time>2015-07-27T09:38:07.611Z</time>
      </trkpt>
      <trkpt lat="44.80986" lon="1.70678">
        <ele>382.295776367</ele>
        <time>2015-07-27T09:38:16.606Z</time>
      </trkpt>
      <trkpt lat="44.80984" lon="1.70678">
        <ele>382.181091309</ele>
        <time>2015-07-27T09:38:17.609Z</time>
      </trkpt>
      <trkpt lat="44.80976" lon="1.70678">
        <ele>380.568817139</ele>
        <time>2015-07-27T09:38:27.657Z</time>
      </trkpt>
      <trkpt lat="44.80974" lon="1.70678">
        <ele>380.338317871</ele>
        <time>2015-07-27T09:38:28.626Z</time>
      </trkpt>
      <trkpt lat="44.80967" lon="1.70678">
        <ele>379.647277832</ele>
        <time>2015-07-27T09:38:34.711Z</time>
      </trkpt>
      <trkpt lat="44.80965" lon="1.70678">
        <ele>379.571502686</ele>
        <time>2015-07-27T09:38:35.639Z</time>
      </trkpt>
      <trkpt lat="44.80957" lon="1.70681">
        <ele>379.041412354</ele>
        <time>2015-07-27T09:38:42.664Z</time>
      </trkpt>
      <trkpt lat="44.80955" lon="1.70681">
        <ele>378.994049072</ele>
        <time>2015-07-27T09:38:43.599Z</time>
      </trkpt>
      <trkpt lat="44.80947" lon="1.70676">
        <ele>378.859436035</ele>
        <time>2015-07-27T09:38:50.592Z</time>
      </trkpt>
      <trkpt lat="44.80946" lon="1.70676">
        <ele>378.9324646</ele>
        <time>2015-07-27T09:38:51.611Z</time>
      </trkpt>
      <trkpt lat="44.80946" lon="1.70664">
        <ele>377.604919434</ele>
        <time>2015-07-27T09:39:32.569Z</time>
      </trkpt>
      <trkpt lat="44.80946" lon="1.70663">
        <ele>377.508209229</ele>
        <time>2015-07-27T09:39:33.627Z</time>
      </trkpt>
      <trkpt lat="44.80941" lon="1.70654">
        <ele>376.816650391</ele>
        <time>2015-07-27T09:39:41.608Z</time>
      </trkpt>
      <trkpt lat="44.8094" lon="1.70653">
        <ele>376.790802002</ele>
        <time>2015-07-27T09:39:42.64Z</time>
      </trkpt>
      <trkpt lat="44.80936" lon="1.70643">
        <ele>376.495941162</ele>
        <time>2015-07-27T09:39:50.615Z</time>
      </trkpt>
      <trkpt lat="44.80935" lon="1.70642">
        <ele>376.471221924</ele>
        <time>2015-07-27T09:39:51.618Z</time>
      </trkpt>
      <trkpt lat="44.80936" lon="1.7063">
        <ele>376.264434814</ele>
        <time>2015-07-27T09:40:02.981Z</time>
      </trkpt>
      <trkpt lat="44.80936" lon="1.70628">
        <ele>376.05847168</ele>
        <time>2015-07-27T09:40:03.651Z</time>
      </trkpt>
      <trkpt lat="44.80937" lon="1.70616">
        <ele>374.596557617</ele>
        <time>2015-07-27T09:40:11.644Z</time>
      </trkpt>
      <trkpt lat="44.80937" lon="1.70615">
        <ele>374.47265625</ele>
        <time>2015-07-27T09:40:12.621Z</time>
      </trkpt>
      <trkpt lat="44.80937" lon="1.70603">
        <ele>373.367523193</ele>
        <time>2015-07-27T09:40:25.591Z</time>
      </trkpt>
      <trkpt lat="44.80938" lon="1.70601">
        <ele>373.321563721</ele>
        <time>2015-07-27T09:40:26.62Z</time>
      </trkpt>
      <trkpt lat="44.8094" lon="1.70589">
        <ele>372.870941162</ele>
        <time>2015-07-27T09:40:35.728Z</time>
      </trkpt>
      <trkpt lat="44.80941" lon="1.70588">
        <ele>372.901519775</ele>
        <time>2015-07-27T09:40:36.634Z</time>
      </trkpt>
      <trkpt lat="44.80943" lon="1.70576">
        <ele>372.656036377</ele>
        <time>2015-07-27T09:40:45.628Z</time>
      </trkpt>
      <trkpt lat="44.80943" lon="1.70575">
        <ele>372.622344971</ele>
        <time>2015-07-27T09:40:46.6Z</time>
      </trkpt>
      <trkpt lat="44.80947" lon="1.70567">
        <ele>372.552734375</ele>
        <time>2015-07-27T09:40:52.343Z</time>
      </trkpt>
      <trkpt lat="44.80949" lon="1.70564">
        <ele>372.513244629</ele>
        <time>2015-07-27T09:40:52.907Z</time>
      </trkpt>
      <trkpt lat="44.80954" lon="1.70556">
        <ele>372.018127441</ele>
        <time>2015-07-27T09:40:58.613Z</time>
      </trkpt>
      <trkpt lat="44.80955" lon="1.70554">
        <ele>371.945892334</ele>
        <time>2015-07-27T09:40:59.657Z</time>
      </trkpt>
      <trkpt lat="44.8096" lon="1.70544">
        <ele>371.284729004</ele>
        <time>2015-07-27T09:41:07.948Z</time>
      </trkpt>
      <trkpt lat="44.80961" lon="1.70543">
        <ele>371.27935791</ele>
        <time>2015-07-27T09:41:08.611Z</time>
      </trkpt>
      <trkpt lat="44.80966" lon="1.70533">
        <ele>371.062347412</ele>
        <time>2015-07-27T09:41:18.118Z</time>
      </trkpt>
      <trkpt lat="44.80967" lon="1.70532">
        <ele>371.002990723</ele>
        <time>2015-07-27T09:41:18.599Z</time>
      </trkpt>
      <trkpt lat="44.80972" lon="1.70524">
        <ele>370.789642334</ele>
        <time>2015-07-27T09:41:26.6Z</time>
      </trkpt>
      <trkpt lat="44.80974" lon="1.70522">
        <ele>370.816253662</ele>
        <time>2015-07-27T09:41:27.63Z</time>
      </trkpt>
      <trkpt lat="44.80978" lon="1.70512">
        <ele>371.405761719</ele>
        <time>2015-07-27T09:41:34.63Z</time>
      </trkpt>
      <trkpt lat="44.80978" lon="1.70511">
        <ele>371.528320312</ele>
        <time>2015-07-27T09:41:35.633Z</time>
      </trkpt>
      <trkpt lat="44.8098" lon="1.705">
        <ele>371.947570801</ele>
        <time>2015-07-27T09:41:41.619Z</time>
      </trkpt>
      <trkpt lat="44.80981" lon="1.70497">
        <ele>371.903381348</ele>
        <time>2015-07-27T09:41:42.624Z</time>
      </trkpt>
      <trkpt lat="44.80986" lon="1.70487">
        <ele>371.454803467</ele>
        <time>2015-07-27T09:41:50.622Z</time>
      </trkpt>
      <trkpt lat="44.80986" lon="1.70486">
        <ele>371.343994141</ele>
        <time>2015-07-27T09:41:51.602Z</time>
      </trkpt>
      <trkpt lat="44.80989" lon="1.70475">
        <ele>369.280334473</ele>
        <time>2015-07-27T09:42:05.599Z</time>
      </trkpt>
      <trkpt lat="44.80989" lon="1.70474">
        <ele>369.158599854</ele>
        <time>2015-07-27T09:42:06.583Z</time>
      </trkpt>
      <trkpt lat="44.80993" lon="1.70463">
        <ele>367.773010254</ele>
        <time>2015-07-27T09:42:18.805Z</time>
      </trkpt>
      <trkpt lat="44.80994" lon="1.70462">
        <ele>367.739227295</ele>
        <time>2015-07-27T09:42:19.621Z</time>
      </trkpt>
      <trkpt lat="44.80995" lon="1.70451">
        <ele>367.074615479</ele>
        <time>2015-07-27T09:42:29.622Z</time>
      </trkpt>
      <trkpt lat="44.80996" lon="1.70449">
        <ele>367.155273438</ele>
        <time>2015-07-27T09:42:30.628Z</time>
      </trkpt>
      <trkpt lat="44.80993" lon="1.70439">
        <ele>367.012451172</ele>
        <time>2015-07-27T09:42:42.354Z</time>
      </trkpt>
      <trkpt lat="44.80992" lon="1.70437">
        <ele>367.019958496</ele>
        <time>2015-07-27T09:42:42.734Z</time>
      </trkpt>
      <trkpt lat="44.80992" lon="1.70427">
        <ele>366.92779541</ele>
        <time>2015-07-27T09:42:50.625Z</time>
      </trkpt>
      <trkpt lat="44.80991" lon="1.70425">
        <ele>366.937896729</ele>
        <time>2015-07-27T09:42:51.628Z</time>
      </trkpt>
      <trkpt lat="44.80986" lon="1.70414">
        <ele>366.966339111</ele>
        <time>2015-07-27T09:42:58.616Z</time>
      </trkpt>
      <trkpt lat="44.80985" lon="1.70413">
        <ele>366.97076416</ele>
        <time>2015-07-27T09:42:59.623Z</time>
      </trkpt>
      <trkpt lat="44.80982" lon="1.70403">
        <ele>367.433380127</ele>
        <time>2015-07-27T09:43:09.628Z</time>
      </trkpt>
      <trkpt lat="44.80982" lon="1.70401">
        <ele>367.478851318</ele>
        <time>2015-07-27T09:43:10.555Z</time>
      </trkpt>
      <trkpt lat="44.8098" lon="1.70389">
        <ele>367.942871094</ele>
        <time>2015-07-27T09:43:16.632Z</time>
      </trkpt>
      <trkpt lat="44.8098" lon="1.70387">
        <ele>367.938262939</ele>
        <time>2015-07-27T09:43:17.599Z</time>
      </trkpt>
      <trkpt lat="44.80978" lon="1.70375">
        <ele>367.93737793</ele>
        <time>2015-07-27T09:43:26.608Z</time>
      </trkpt>
      <trkpt lat="44.80978" lon="1.70372">
        <ele>367.941589355</ele>
        <time>2015-07-27T09:43:27.628Z</time>
      </trkpt>
      <trkpt lat="44.80978" lon="1.70361">
        <ele>367.368133545</ele>
        <time>2015-07-27T09:43:35.612Z</time>
      </trkpt>
      <trkpt lat="44.80978" lon="1.70359">
        <ele>367.280548096</ele>
        <time>2015-07-27T09:43:36.628Z</time>
      </trkpt>
      <trkpt lat="44.80979" lon="1.70348">
        <ele>366.749237061</ele>
        <time>2015-07-27T09:43:43.632Z</time>
      </trkpt>
      <trkpt lat="44.80979" lon="1.70347">
        <ele>366.661010742</ele>
        <time>2015-07-27T09:43:44.67Z</time>
      </trkpt>
      <trkpt lat="44.8098" lon="1.70335">
        <ele>366.80960083</ele>
        <time>2015-07-27T09:43:52.397Z</time>
      </trkpt>
      <trkpt lat="44.8098" lon="1.70333">
        <ele>366.790405273</ele>
        <time>2015-07-27T09:43:52.796Z</time>
      </trkpt>
      <trkpt lat="44.80983" lon="1.70322">
        <ele>365.850463867</ele>
        <time>2015-07-27T09:43:59.528Z</time>
      </trkpt>
      <trkpt lat="44.80983" lon="1.7032">
        <ele>365.731933594</ele>
        <time>2015-07-27T09:44:00.532Z</time>
      </trkpt>
      <trkpt lat="44.80985" lon="1.70308">
        <ele>364.659210205</ele>
        <time>2015-07-27T09:44:08.638Z</time>
      </trkpt>
      <trkpt lat="44.80985" lon="1.70307">
        <ele>364.691986084</ele>
        <time>2015-07-27T09:44:09.522Z</time>
      </trkpt>
      <trkpt lat="44.80985" lon="1.70296">
        <ele>364.183349609</ele>
        <time>2015-07-27T09:44:19.64Z</time>
      </trkpt>
      <trkpt lat="44.80985" lon="1.70293">
        <ele>363.915710449</ele>
        <time>2015-07-27T09:44:20.65Z</time>
      </trkpt>
      <trkpt lat="44.80985" lon="1.70281">
        <ele>362.640228271</ele>
        <time>2015-07-27T09:44:27.612Z</time>
      </trkpt>
      <trkpt lat="44.80985" lon="1.7028">
        <ele>362.49822998</ele>
        <time>2015-07-27T09:44:28.632Z</time>
      </trkpt>
      <trkpt lat="44.80983" lon="1.70268">
        <ele>361.159851074</ele>
        <time>2015-07-27T09:44:38.63Z</time>
      </trkpt>
      <trkpt lat="44.80983" lon="1.70267">
        <ele>361.076934814</ele>
        <time>2015-07-27T09:44:39.628Z</time>
      </trkpt>
      <trkpt lat="44.80986" lon="1.70255">
        <ele>360.641937256</ele>
        <time>2015-07-27T09:44:47.736Z</time>
      </trkpt>
      <trkpt lat="44.80986" lon="1.70254">
        <ele>360.514648438</ele>
        <time>2015-07-27T09:44:48.652Z</time>
      </trkpt>
      <trkpt lat="44.80989" lon="1.70244">
        <ele>360.057556152</ele>
        <time>2015-07-27T09:44:56.652Z</time>
      </trkpt>
      <trkpt lat="44.8099" lon="1.70242">
        <ele>360.044586182</ele>
        <time>2015-07-27T09:44:57.654Z</time>
      </trkpt>
      <trkpt lat="44.80991" lon="1.70231">
        <ele>359.549346924</ele>
        <time>2015-07-27T09:45:04.622Z</time>
      </trkpt>
      <trkpt lat="44.80991" lon="1.70228">
        <ele>359.317169189</ele>
        <time>2015-07-27T09:45:05.616Z</time>
      </trkpt>
      <trkpt lat="44.80992" lon="1.70216">
        <ele>357.934997559</ele>
        <time>2015-07-27T09:45:13.329Z</time>
      </trkpt>
      <trkpt lat="44.80993" lon="1.70215">
        <ele>357.786743164</ele>
        <time>2015-07-27T09:45:13.724Z</time>
      </trkpt>
      <trkpt lat="44.80994" lon="1.70203">
        <ele>355.884674072</ele>
        <time>2015-07-27T09:45:22.626Z</time>
      </trkpt>
      <trkpt lat="44.80995" lon="1.70201">
        <ele>355.686187744</ele>
        <time>2015-07-27T09:45:24.134Z</time>
      </trkpt>
      <trkpt lat="44.80999" lon="1.70191">
        <ele>354.505767822</ele>
        <time>2015-07-27T09:45:31.64Z</time>
      </trkpt>
      <trkpt lat="44.81" lon="1.70191">
        <ele>354.33770752</ele>
        <time>2015-07-27T09:45:32.62Z</time>
      </trkpt>
      <trkpt lat="44.81002" lon="1.7018">
        <ele>352.883666992</ele>
        <time>2015-07-27T09:45:42.683Z</time>
      </trkpt>
      <trkpt lat="44.81001" lon="1.70177">
        <ele>352.781311035</ele>
        <time>2015-07-27T09:45:43.66Z</time>
      </trkpt>
      <trkpt lat="44.81" lon="1.70165">
        <ele>351.999725342</ele>
        <time>2015-07-27T09:45:51.657Z</time>
      </trkpt>
      <trkpt lat="44.81" lon="1.70163">
        <ele>351.943450928</ele>
        <time>2015-07-27T09:45:52.628Z</time>
      </trkpt>
      <trkpt lat="44.81" lon="1.70151">
        <ele>351.626495361</ele>
        <time>2015-07-27T09:46:01.608Z</time>
      </trkpt>
      <trkpt lat="44.81" lon="1.70149">
        <ele>351.564697266</ele>
        <time>2015-07-27T09:46:02.614Z</time>
      </trkpt>
      <trkpt lat="44.81001" lon="1.70137">
        <ele>351.70401001</ele>
        <time>2015-07-27T09:46:11.595Z</time>
      </trkpt>
      <trkpt lat="44.81001" lon="1.70135">
        <ele>351.767578125</ele>
        <time>2015-07-27T09:46:12.618Z</time>
      </trkpt>
      <trkpt lat="44.81" lon="1.70123">
        <ele>351.851531982</ele>
        <time>2015-07-27T09:46:21.616Z</time>
      </trkpt>
      <trkpt lat="44.81" lon="1.70122">
        <ele>351.847198486</ele>
        <time>2015-07-27T09:46:22.627Z</time>
      </trkpt>
      <trkpt lat="44.80997" lon="1.7011">
        <ele>351.632904053</ele>
        <time>2015-07-27T09:46:28.653Z</time>
      </trkpt>
      <trkpt lat="44.80997" lon="1.70109">
        <ele>351.706390381</ele>
        <time>2015-07-27T09:46:29.624Z</time>
      </trkpt>
      <trkpt lat="44.80992" lon="1.70099">
        <ele>352.515075684</ele>
        <time>2015-07-27T09:46:38.596Z</time>
      </trkpt>
      <trkpt lat="44.80992" lon="1.70098">
        <ele>352.590057373</ele>
        <time>2015-07-27T09:46:39.634Z</time>
      </trkpt>
      <trkpt lat="44.80989" lon="1.70086">
        <ele>353.25567627</ele>
        <time>2015-07-27T09:46:47.671Z</time>
      </trkpt>
      <trkpt lat="44.80988" lon="1.70084">
        <ele>353.272705078</ele>
        <time>2015-07-27T09:46:48.555Z</time>
      </trkpt>
      <trkpt lat="44.80984" lon="1.70073">
        <ele>353.42388916</ele>
        <time>2015-07-27T09:46:56.683Z</time>
      </trkpt>
      <trkpt lat="44.80983" lon="1.70072">
        <ele>353.43536377</ele>
        <time>2015-07-27T09:46:57.621Z</time>
      </trkpt>
      <trkpt lat="44.80975" lon="1.70066">
        <ele>353.453430176</ele>
        <time>2015-07-27T09:47:05.696Z</time>
      </trkpt>
      <trkpt lat="44.80974" lon="1.70065">
        <ele>353.488037109</ele>
        <time>2015-07-27T09:47:06.615Z</time>
      </trkpt>
      <trkpt lat="44.80968" lon="1.70057">
        <ele>353.672943115</ele>
        <time>2015-07-27T09:47:13.588Z</time>
      </trkpt>
      <trkpt lat="44.80968" lon="1.70056">
        <ele>353.657562256</ele>
        <time>2015-07-27T09:47:14.622Z</time>
      </trkpt>
      <trkpt lat="44.80959" lon="1.70052">
        <ele>354.864349365</ele>
        <time>2015-07-27T09:47:22.615Z</time>
      </trkpt>
      <trkpt lat="44.80959" lon="1.70051">
        <ele>355.07220459</ele>
        <time>2015-07-27T09:47:23.625Z</time>
      </trkpt>
      <trkpt lat="44.80954" lon="1.70043">
        <ele>356.294494629</ele>
        <time>2015-07-27T09:47:30.614Z</time>
      </trkpt>
      <trkpt lat="44.80953" lon="1.70042">
        <ele>356.343505859</ele>
        <time>2015-07-27T09:47:31.668Z</time>
      </trkpt>
      <trkpt lat="44.80948" lon="1.70032">
        <ele>356.374053955</ele>
        <time>2015-07-27T09:47:37.524Z</time>
      </trkpt>
      <trkpt lat="44.80948" lon="1.7003">
        <ele>356.461242676</ele>
        <time>2015-07-27T09:47:38.619Z</time>
      </trkpt>
      <trkpt lat="44.80943" lon="1.7002">
        <ele>357.324859619</ele>
        <time>2015-07-27T09:47:46.627Z</time>
      </trkpt>
      <trkpt lat="44.80942" lon="1.70018">
        <ele>357.487243652</ele>
        <time>2015-07-27T09:47:47.628Z</time>
      </trkpt>
      <trkpt lat="44.80939" lon="1.70008">
        <ele>357.43862915</ele>
        <time>2015-07-27T09:47:54.736Z</time>
      </trkpt>
      <trkpt lat="44.80939" lon="1.70006">
        <ele>357.40927124</ele>
        <time>2015-07-27T09:47:55.622Z</time>
      </trkpt>
      <trkpt lat="44.80937" lon="1.69994">
        <ele>356.895843506</ele>
        <time>2015-07-27T09:48:01.627Z</time>
      </trkpt>
      <trkpt lat="44.80936" lon="1.69992">
        <ele>356.823150635</ele>
        <time>2015-07-27T09:48:02.619Z</time>
      </trkpt>
      <trkpt lat="44.80935" lon="1.69981">
        <ele>356.372650146</ele>
        <time>2015-07-27T09:48:08.754Z</time>
      </trkpt>
      <trkpt lat="44.80935" lon="1.69979">
        <ele>356.298675537</ele>
        <time>2015-07-27T09:48:09.614Z</time>
      </trkpt>
      <trkpt lat="44.80934" lon="1.69967">
        <ele>355.619049072</ele>
        <time>2015-07-27T09:48:17.586Z</time>
      </trkpt>
      <trkpt lat="44.80933" lon="1.69966">
        <ele>355.564819336</ele>
        <time>2015-07-27T09:48:18.641Z</time>
      </trkpt>
      <trkpt lat="44.80931" lon="1.69954">
        <ele>355.993377686</ele>
        <time>2015-07-27T09:48:26.605Z</time>
      </trkpt>
      <trkpt lat="44.8093" lon="1.69953">
        <ele>356.068969727</ele>
        <time>2015-07-27T09:48:27.688Z</time>
      </trkpt>
      <trkpt lat="44.80923" lon="1.69945">
        <ele>356.85748291</ele>
        <time>2015-07-27T09:48:35.632Z</time>
      </trkpt>
      <trkpt lat="44.80923" lon="1.69944">
        <ele>356.885864258</ele>
        <time>2015-07-27T09:48:36.623Z</time>
      </trkpt>
      <trkpt lat="44.80916" lon="1.69937">
        <ele>357.220214844</ele>
        <time>2015-07-27T09:48:44.56Z</time>
      </trkpt>
      <trkpt lat="44.80916" lon="1.69936">
        <ele>357.280090332</ele>
        <time>2015-07-27T09:48:45.608Z</time>
      </trkpt>
      <trkpt lat="44.8091" lon="1.69927">
        <ele>358.191589355</ele>
        <time>2015-07-27T09:48:54.638Z</time>
      </trkpt>
      <trkpt lat="44.80909" lon="1.69926">
        <ele>358.292999268</ele>
        <time>2015-07-27T09:48:55.587Z</time>
      </trkpt>
      <trkpt lat="44.80902" lon="1.69919">
        <ele>358.361053467</ele>
        <time>2015-07-27T09:49:01.606Z</time>
      </trkpt>
      <trkpt lat="44.80902" lon="1.69918">
        <ele>358.448852539</ele>
        <time>2015-07-27T09:49:02.613Z</time>
      </trkpt>
      <trkpt lat="44.80895" lon="1.69911">
        <ele>359.061523438</ele>
        <time>2015-07-27T09:49:10.621Z</time>
      </trkpt>
      <trkpt lat="44.80894" lon="1.69909">
        <ele>359.07598877</ele>
        <time>2015-07-27T09:49:11.651Z</time>
      </trkpt>
      <trkpt lat="44.80889" lon="1.699">
        <ele>359.619903564</ele>
        <time>2015-07-27T09:49:18.624Z</time>
      </trkpt>
      <trkpt lat="44.80888" lon="1.69898">
        <ele>359.735900879</ele>
        <time>2015-07-27T09:49:19.648Z</time>
      </trkpt>
      <trkpt lat="44.80886" lon="1.69887">
        <ele>359.665618896</ele>
        <time>2015-07-27T09:49:26.63Z</time>
      </trkpt>
      <trkpt lat="44.80886" lon="1.69885">
        <ele>359.574676514</ele>
        <time>2015-07-27T09:49:27.655Z</time>
      </trkpt>
      <trkpt lat="44.80878" lon="1.69879">
        <ele>359.700592041</ele>
        <time>2015-07-27T09:49:44.649Z</time>
      </trkpt>
      <trkpt lat="44.80877" lon="1.69879">
        <ele>359.739715576</ele>
        <time>2015-07-27T09:49:45.615Z</time>
      </trkpt>
      <trkpt lat="44.80872" lon="1.69869">
        <ele>359.990325928</ele>
        <time>2015-07-27T09:49:53.628Z</time>
      </trkpt>
      <trkpt lat="44.80871" lon="1.69867">
        <ele>360.029083252</ele>
        <time>2015-07-27T09:49:54.656Z</time>
      </trkpt>
      <trkpt lat="44.80864" lon="1.69859">
        <ele>359.709350586</ele>
        <time>2015-07-27T09:50:03.092Z</time>
      </trkpt>
      <trkpt lat="44.80863" lon="1.69858">
        <ele>359.626068115</ele>
        <time>2015-07-27T09:50:03.625Z</time>
      </trkpt>
      <trkpt lat="44.80856" lon="1.6985">
        <ele>359.49822998</ele>
        <time>2015-07-27T09:50:11.651Z</time>
      </trkpt>
      <trkpt lat="44.80856" lon="1.6985">
        <ele>359.475158691</ele>
        <time>2015-07-27T09:50:12.634Z</time>
      </trkpt>
      <trkpt lat="44.80849" lon="1.69843">
        <ele>359.590942383</ele>
        <time>2015-07-27T09:50:19.641Z</time>
      </trkpt>
      <trkpt lat="44.80847" lon="1.69842">
        <ele>359.556762695</ele>
        <time>2015-07-27T09:50:20.635Z</time>
      </trkpt>
      <trkpt lat="44.8084" lon="1.69835">
        <ele>359.556152344</ele>
        <time>2015-07-27T09:50:29.646Z</time>
      </trkpt>
      <trkpt lat="44.80839" lon="1.69834">
        <ele>359.512969971</ele>
        <time>2015-07-27T09:50:30.667Z</time>
      </trkpt>
      <trkpt lat="44.80832" lon="1.69827">
        <ele>358.959594727</ele>
        <time>2015-07-27T09:50:38.083Z</time>
      </trkpt>
      <trkpt lat="44.80831" lon="1.69826">
        <ele>358.931243896</ele>
        <time>2015-07-27T09:50:38.612Z</time>
      </trkpt>
      <trkpt lat="44.80823" lon="1.69822">
        <ele>358.24319458</ele>
        <time>2015-07-27T09:50:49.619Z</time>
      </trkpt>
      <trkpt lat="44.80822" lon="1.69821">
        <ele>358.157775879</ele>
        <time>2015-07-27T09:50:50.607Z</time>
      </trkpt>
      <trkpt lat="44.80816" lon="1.69812">
        <ele>358.104766846</ele>
        <time>2015-07-27T09:50:59.623Z</time>
      </trkpt>
      <trkpt lat="44.80816" lon="1.6981">
        <ele>358.180847168</ele>
        <time>2015-07-27T09:51:00.526Z</time>
      </trkpt>
      <trkpt lat="44.8081" lon="1.69802">
        <ele>358.297729492</ele>
        <time>2015-07-27T09:51:07.602Z</time>
      </trkpt>
      <trkpt lat="44.80809" lon="1.698">
        <ele>358.243560791</ele>
        <time>2015-07-27T09:51:08.613Z</time>
      </trkpt>
      <trkpt lat="44.80803" lon="1.69791">
        <ele>357.540771484</ele>
        <time>2015-07-27T09:51:15.62Z</time>
      </trkpt>
      <trkpt lat="44.80802" lon="1.69791">
        <ele>357.344146729</ele>
        <time>2015-07-27T09:51:16.633Z</time>
      </trkpt>
      <trkpt lat="44.80795" lon="1.69783">
        <ele>356.804504395</ele>
        <time>2015-07-27T09:51:29.571Z</time>
      </trkpt>
      <trkpt lat="44.80794" lon="1.69782">
        <ele>356.685394287</ele>
        <time>2015-07-27T09:51:31.094Z</time>
      </trkpt>
      <trkpt lat="44.80787" lon="1.69777">
        <ele>356.568389893</ele>
        <time>2015-07-27T09:51:52.85Z</time>
      </trkpt>
      <trkpt lat="44.80786" lon="1.69775">
        <ele>356.552734375</ele>
        <time>2015-07-27T09:51:53.621Z</time>
      </trkpt>
      <trkpt lat="44.8078" lon="1.69766">
        <ele>356.368804932</ele>
        <time>2015-07-27T09:52:00.603Z</time>
      </trkpt>
      <trkpt lat="44.80779" lon="1.69766">
        <ele>356.306304932</ele>
        <time>2015-07-27T09:52:01.599Z</time>
      </trkpt>
      <trkpt lat="44.80772" lon="1.69758">
        <ele>356.121124268</ele>
        <time>2015-07-27T09:52:08.075Z</time>
      </trkpt>
      <trkpt lat="44.80771" lon="1.69757">
        <ele>356.015930176</ele>
        <time>2015-07-27T09:52:08.613Z</time>
      </trkpt>
      <trkpt lat="44.80765" lon="1.69749">
        <ele>354.742797852</ele>
        <time>2015-07-27T09:52:20.619Z</time>
      </trkpt>
      <trkpt lat="44.80764" lon="1.69749">
        <ele>354.681335449</ele>
        <time>2015-07-27T09:52:21.602Z</time>
      </trkpt>
      <trkpt lat="44.80756" lon="1.69744">
        <ele>354.615661621</ele>
        <time>2015-07-27T09:52:26.621Z</time>
      </trkpt>
      <trkpt lat="44.80755" lon="1.69743">
        <ele>354.619018555</ele>
        <time>2015-07-27T09:52:27.613Z</time>
      </trkpt>
      <trkpt lat="44.80748" lon="1.69735">
        <ele>354.215332031</ele>
        <time>2015-07-27T09:52:34.631Z</time>
      </trkpt>
      <trkpt lat="44.80747" lon="1.69734">
        <ele>354.10546875</ele>
        <time>2015-07-27T09:52:35.623Z</time>
      </trkpt>
      <trkpt lat="44.80742" lon="1.69726">
        <ele>353.098114014</ele>
        <time>2015-07-27T09:52:42.522Z</time>
      </trkpt>
      <trkpt lat="44.80741" lon="1.69725">
        <ele>352.878265381</ele>
        <time>2015-07-27T09:52:43.523Z</time>
      </trkpt>
      <trkpt lat="44.8074" lon="1.69723">
        <ele>352.536712646</ele>
        <time>2015-07-27T09:52:46.053Z</time>
      </trkpt>
    </trkseg>
  </trk>
</gpx>